Observation data for Palo Duro Canyon State Park Rim on 09/12/2017      Previous  Date       Current Mesonet Observations  Soil Data  Daily Summary Page  Observations in Plain Language
KPD1 120500Z 19004KT 20/11 A3017 RMK A01 T01960111  RH  058%=      5-min Rain = 0
KPD1 120501Z 19004KT 20/11 A3017 RMK A01 T01950110  RH  058%=      5-min Rain = 0
KPD1 120502Z 19004KT 20/11 A3017 RMK A01 T01950110  RH  058%=      5-min Rain = 0
KPD1 120503Z 19004KT 19/11 A3016 RMK A01 T01940110  RH  058%=      5-min Rain = 0
KPD1 120504Z 19004KT 19/11 A3016 RMK A01 T01940111  RH  058%=      5-min Rain = 0
KPD1 120505Z 19004KT 19/11 A3016 RMK A01 T01940111  RH  058%=      5-min Rain = 0
KPD1 120506Z 19004KT 19/11 A3016 RMK A01 T01940111  RH  059%=      5-min Rain = 0
KPD1 120507Z 19004KT 19/11 A3016 RMK A01 T01930110  RH  059%=      5-min Rain = 0
KPD1 120508Z 19004KT 19/11 A3016 RMK A01 T01930110  RH  059%=      5-min Rain = 0
KPD1 120509Z 19004KT 19/11 A3016 RMK A01 T01930111  RH  059%=      5-min Rain = 0
KPD1 120510Z 19004KT 19/11 A3016 RMK A01 T01930111  RH  059%=      5-min Rain = 0
KPD1 120511Z 19004KT 19/11 A3016 RMK A01 T01920111  RH  059%=      5-min Rain = 0
KPD1 120512Z 19004KT 19/11 A3016 RMK A01 T01920110  RH  059%=      5-min Rain = 0
KPD1 120513Z 19004KT 19/11 A3016 RMK A01 T01920111  RH  059%=      5-min Rain = 0
KPD1 120514Z 18004KT 19/11 A3016 RMK A01 T01910110  RH  060%=      5-min Rain = 0
KPD1 120515Z 18004KT 19/11 A3016 RMK A01 T01910110  RH  060%=      5-min Rain = 0
KPD1 120516Z 18004KT 19/11 A3016 RMK A01 T01900111  RH  060%=      5-min Rain = 0
KPD1 120517Z 18004KT 19/11 A3016 RMK A01 T01900110  RH  060%=      5-min Rain = 0
KPD1 120518Z 18004KT 19/11 A3016 RMK A01 T01890110  RH  060%=      5-min Rain = 0
KPD1 120519Z 18004KT 19/11 A3016 RMK A01 T01890110  RH  060%=      5-min Rain = 0
KPD1 120520Z 18004KT 19/11 A3016 RMK A01 T01890111  RH  060%=      5-min Rain = 0
KPD1 120521Z 18004KT 19/11 A3016 RMK A01 T01890110  RH  060%=      5-min Rain = 0
KPD1 120522Z 18004KT 19/11 A3016 RMK A01 T01880110  RH  060%=      5-min Rain = 0
KPD1 120523Z 18004KT 19/11 A3016 RMK A01 T01880110  RH  061%=      5-min Rain = 0
KPD1 120524Z 18004KT 19/11 A3016 RMK A01 T01880110  RH  061%=      5-min Rain = 0
KPD1 120525Z 18004KT 19/11 A3016 RMK A01 T01870110  RH  061%=      5-min Rain = 0
KPD1 120526Z 18004KT 19/11 A3016 RMK A01 T01870110  RH  061%=      5-min Rain = 0
KPD1 120527Z 18004KT 19/11 A3016 RMK A01 T01870110  RH  061%=      5-min Rain = 0
KPD1 120528Z 19004KT 19/11 A3016 RMK A01 T01870110  RH  061%=      5-min Rain = 0
KPD1 120529Z 19004KT 19/11 A3016 RMK A01 T01860110  RH  061%=      5-min Rain = 0
KPD1 120530Z 19004KT 19/11 A3016 RMK A01 T01860110  RH  061%=      5-min Rain = 0
KPD1 120531Z 19004KT 19/11 A3016 RMK A01 T01860111  RH  062%=      5-min Rain = 0
KPD1 120532Z 19004KT 19/11 A3016 RMK A01 T01850111  RH  062%=      5-min Rain = 0
KPD1 120533Z 19004KT 19/11 A3016 RMK A01 T01850111  RH  062%=      5-min Rain = 0
KPD1 120534Z 19004KT 19/11 A3016 RMK A01 T01850111  RH  062%=      5-min Rain = 0
KPD1 120535Z 18004KT 19/11 A3016 RMK A01 T01850111  RH  062%=      5-min Rain = 0
KPD1 120536Z 18004KT 19/11 A3016 RMK A01 T01850111  RH  062%=      5-min Rain = 0
KPD1 120537Z 18004KT 18/11 A3016 RMK A01 T01840110  RH  062%=      5-min Rain = 0
KPD1 120538Z 18004KT 19/11 A3016 RMK A01 T01850110  RH  062%=      5-min Rain = 0
KPD1 120539Z 17003KT 18/11 A3016 RMK A01 T01840110  RH  062%=      5-min Rain = 0
KPD1 120540Z 17003KT 18/11 A3016 RMK A01 T01840110  RH  062%=      5-min Rain = 0
KPD1 120541Z 17003KT 18/11 A3016 RMK A01 T01840110  RH  062%=      5-min Rain = 0
KPD1 120542Z 17003KT 18/11 A3016 RMK A01 T01840109  RH  062%=      5-min Rain = 0
KPD1 120543Z 17003KT 19/11 A3016 RMK A01 T01850110  RH  062%=      5-min Rain = 0
KPD1 120544Z 16002KT 19/11 A3016 RMK A01 T01850110  RH  062%=      5-min Rain = 0
KPD1 120545Z 16003KT 19/11 A3016 RMK A01 T01850110  RH  062%=      5-min Rain = 0
KPD1 120546Z 16002KT 19/11 A3016 RMK A01 T01850110  RH  062%=      5-min Rain = 0
KPD1 120547Z 17002KT 19/11 A3016 RMK A01 T01850110  RH  062%=      5-min Rain = 0
KPD1 120548Z 17003KT 19/11 A3016 RMK A01 T01850110  RH  062%=      5-min Rain = 0
KPD1 120549Z 18003KT 18/11 A3016 RMK A01 T01840110  RH  062%=      5-min Rain = 0
KPD1 120550Z 18003KT 18/11 A3016 RMK A01 T01840110  RH  062%=      5-min Rain = 0
KPD1 120551Z 19003KT 18/11 A3016 RMK A01 T01830110  RH  062%=      5-min Rain = 0
KPD1 120552Z 19003KT 18/11 A3016 RMK A01 T01830110  RH  062%=      5-min Rain = 0
KPD1 120553Z 19003KT 18/11 A3016 RMK A01 T01820110  RH  063%=      5-min Rain = 0
KPD1 120554Z 19003KT 18/11 A3016 RMK A01 T01820110  RH  063%=      5-min Rain = 0
KPD1 120555Z 19003KT 18/11 A3016 RMK A01 T01820110  RH  063%=      5-min Rain = 0
KPD1 120556Z 19003KT 18/11 A3016 RMK A01 T01820110  RH  063%=      5-min Rain = 0
KPD1 120557Z 19003KT 18/11 A3016 RMK A01 T01820110  RH  063%=      5-min Rain = 0
KPD1 120558Z 18002KT 18/11 A3016 RMK A01 T01820110  RH  063%=      5-min Rain = 0
KPD1 120559Z 18002KT 18/11 A3016 RMK A01 T01810110  RH  063%=      5-min Rain = 0
KPD1 120600Z 18002KT 18/11 A3016 RMK A01 T01810110  RH  063%=      5-min Rain = 0
KPD1 120601Z 18002KT 18/11 A3016 RMK A01 T01800111  RH  064%=      5-min Rain = 0
KPD1 120602Z 18002KT 18/11 A3016 RMK A01 T01800110  RH  064%=      5-min Rain = 0
KPD1 120603Z 18002KT 18/11 A3016 RMK A01 T01790110  RH  064%=      5-min Rain = 0
KPD1 120604Z 18002KT 18/11 A3016 RMK A01 T01780110  RH  064%=      5-min Rain = 0
KPD1 120605Z 18002KT 18/11 A3015 RMK A01 T01780109  RH  064%=      5-min Rain = 0
KPD1 120606Z 18002KT 18/11 A3015 RMK A01 T01770110  RH  065%=      5-min Rain = 0
KPD1 120607Z 18002KT 18/11 A3015 RMK A01 T01760110  RH  065%=      5-min Rain = 0
KPD1 120608Z 18002KT 18/11 A3015 RMK A01 T01760111  RH  066%=      5-min Rain = 0
KPD1 120609Z 18002KT 18/11 A3015 RMK A01 T01760111  RH  066%=      5-min Rain = 0
KPD1 120610Z 19002KT 18/11 A3015 RMK A01 T01760111  RH  066%=      5-min Rain = 0
KPD1 120611Z 19002KT 18/11 A3015 RMK A01 T01750111  RH  066%=      5-min Rain = 0
KPD1 120612Z 19002KT 18/11 A3015 RMK A01 T01750111  RH  066%=      5-min Rain = 0
KPD1 120613Z 18002KT 18/11 A3015 RMK A01 T01750110  RH  066%=      5-min Rain = 0
KPD1 120614Z 18002KT 17/11 A3015 RMK A01 T01740110  RH  066%=      5-min Rain = 0
KPD1 120615Z 18002KT 17/11 A3015 RMK A01 T01740110  RH  066%=      5-min Rain = 0
KPD1 120616Z 18001KT 17/11 A3015 RMK A01 T01730110  RH  066%=      5-min Rain = 0
KPD1 120617Z 18001KT 17/11 A3015 RMK A01 T01730110  RH  067%=      5-min Rain = 0
KPD1 120618Z 18001KT 17/11 A3015 RMK A01 T01720110  RH  067%=      5-min Rain = 0
KPD1 120619Z 18002KT 17/11 A3015 RMK A01 T01720110  RH  067%=      5-min Rain = 0
KPD1 120620Z 18002KT 17/11 A3015 RMK A01 T01710110  RH  067%=      5-min Rain = 0
KPD1 120621Z 18002KT 17/11 A3015 RMK A01 T01700109  RH  067%=      5-min Rain = 0
KPD1 120622Z 18002KT 17/11 A3015 RMK A01 T01700110  RH  068%=      5-min Rain = 0
KPD1 120623Z 18002KT 17/11 A3015 RMK A01 T01690109  RH  068%=      5-min Rain = 0
KPD1 120624Z 18001KT 17/11 A3015 RMK A01 T01690110  RH  068%=      5-min Rain = 0
KPD1 120625Z 18001KT 17/11 A3015 RMK A01 T01680110  RH  068%=      5-min Rain = 0
KPD1 120626Z 18001KT 17/11 A3015 RMK A01 T01680110  RH  069%=      5-min Rain = 0
KPD1 120627Z 17002KT 17/11 A3015 RMK A01 T01670110  RH  069%=      5-min Rain = 0
KPD1 120628Z 17001KT 17/11 A3015 RMK A01 T01670110  RH  069%=      5-min Rain = 0
KPD1 120629Z 17001KT 17/11 A3015 RMK A01 T01670110  RH  069%=      5-min Rain = 0
KPD1 120630Z 17001KT 17/11 A3015 RMK A01 T01670110  RH  069%=      5-min Rain = 0
KPD1 120631Z 18001KT 17/11 A3015 RMK A01 T01660110  RH  069%=      5-min Rain = 0
KPD1 120632Z 19002KT 17/11 A3015 RMK A01 T01660110  RH  069%=      5-min Rain = 0
KPD1 120633Z 19002KT 17/11 A3015 RMK A01 T01660110  RH  069%=      5-min Rain = 0
KPD1 120634Z 19002KT 17/11 A3015 RMK A01 T01660110  RH  070%=      5-min Rain = 0
KPD1 120635Z 19002KT 17/11 A3015 RMK A01 T01660111  RH  070%=      5-min Rain = 0
KPD1 120636Z 19002KT 17/11 A3015 RMK A01 T01660111  RH  070%=      5-min Rain = 0
KPD1 120637Z 19003KT 17/11 A3015 RMK A01 T01660110  RH  070%=      5-min Rain = 0
KPD1 120638Z 19003KT 17/11 A3015 RMK A01 T01670111  RH  069%=      5-min Rain = 0
KPD1 120639Z 19003KT 17/11 A3015 RMK A01 T01670111  RH  069%=      5-min Rain = 0
KPD1 120640Z 19003KT 17/11 A3015 RMK A01 T01680111  RH  069%=      5-min Rain = 0
KPD1 120641Z 19002KT 17/11 A3014 RMK A01 T01680110  RH  069%=      5-min Rain = 0
KPD1 120642Z 19002KT 17/11 A3014 RMK A01 T01680110  RH  069%=      5-min Rain = 0
KPD1 120643Z 19002KT 17/11 A3014 RMK A01 T01680111  RH  069%=      5-min Rain = 0
KPD1 120644Z 19002KT 17/11 A3014 RMK A01 T01670110  RH  069%=      5-min Rain = 0
KPD1 120645Z 19001KT 17/11 A3014 RMK A01 T01660110  RH  069%=      5-min Rain = 0
KPD1 120646Z 20002KT 17/11 A3014 RMK A01 T01660110  RH  069%=      5-min Rain = 0
KPD1 120647Z 21002KT 17/11 A3014 RMK A01 T01660110  RH  069%=      5-min Rain = 0
KPD1 120648Z 20002KT 17/11 A3014 RMK A01 T01650110  RH  070%=      5-min Rain = 0
KPD1 120649Z 20002KT 17/11 A3014 RMK A01 T01650110  RH  070%=      5-min Rain = 0
KPD1 120650Z 20002KT 16/11 A3014 RMK A01 T01640110  RH  070%=      5-min Rain = 0
KPD1 120651Z 20002KT 17/11 A3014 RMK A01 T01650110  RH  070%=      5-min Rain = 0
KPD1 120652Z 21003KT 16/11 A3014 RMK A01 T01640110  RH  070%=      5-min Rain = 0
KPD1 120653Z 21003KT 16/11 A3014 RMK A01 T01630110  RH  071%=      5-min Rain = 0
KPD1 120654Z 21003KT 16/11 A3014 RMK A01 T01620109  RH  071%=      5-min Rain = 0
KPD1 120655Z 20003KT 16/11 A3014 RMK A01 T01620109  RH  071%=      5-min Rain = 0
KPD1 120656Z 20003KT 16/11 A3014 RMK A01 T01610108  RH  071%=      5-min Rain = 0
KPD1 120657Z 20003KT 16/11 A3014 RMK A01 T01610108  RH  071%=      5-min Rain = 0
KPD1 120658Z 20003KT 16/11 A3014 RMK A01 T01610108  RH  071%=      5-min Rain = 0
KPD1 120659Z 20003KT 16/11 A3014 RMK A01 T01600108  RH  071%=      5-min Rain = 0
KPD1 120700Z 20003KT 16/11 A3014 RMK A01 T01600108  RH  071%=      5-min Rain = 0
KPD1 120701Z 20003KT 16/11 A3014 RMK A01 T01600108  RH  071%=      5-min Rain = 0
KPD1 120702Z 20003KT 16/11 A3015 RMK A01 T01600109  RH  071%=      5-min Rain = 0
KPD1 120703Z 20003KT 16/11 A3015 RMK A01 T01600108  RH  071%=      5-min Rain = 0
KPD1 120704Z 20003KT 16/11 A3015 RMK A01 T01600108  RH  071%=      5-min Rain = 0
KPD1 120705Z 20003KT 16/11 A3015 RMK A01 T01600108  RH  071%=      5-min Rain = 0
KPD1 120706Z 20002KT 16/11 A3014 RMK A01 T01590108  RH  072%=      5-min Rain = 0
KPD1 120707Z 19002KT 16/11 A3014 RMK A01 T01590108  RH  072%=      5-min Rain = 0
KPD1 120708Z 18002KT 16/11 A3014 RMK A01 T01590108  RH  072%=      5-min Rain = 0
KPD1 120709Z 18002KT 16/11 A3014 RMK A01 T01580108  RH  072%=      5-min Rain = 0
KPD1 120710Z 18002KT 16/11 A3014 RMK A01 T01580108  RH  072%=      5-min Rain = 0
KPD1 120711Z 18002KT 16/11 A3014 RMK A01 T01570107  RH  072%=      5-min Rain = 0
KPD1 120712Z 18002KT 16/11 A3015 RMK A01 T01570108  RH  072%=      5-min Rain = 0
KPD1 120713Z 18002KT 16/11 A3014 RMK A01 T01570107  RH  072%=      5-min Rain = 0
KPD1 120714Z 18002KT 16/11 A3014 RMK A01 T01560107  RH  072%=      5-min Rain = 0
KPD1 120715Z 18002KT 16/11 A3014 RMK A01 T01560107  RH  072%=      5-min Rain = 0
KPD1 120716Z 18002KT 16/11 A3014 RMK A01 T01560107  RH  073%=      5-min Rain = 0
KPD1 120717Z 18003KT 16/11 A3014 RMK A01 T01560107  RH  073%=      5-min Rain = 0
KPD1 120718Z 19002KT 16/11 A3014 RMK A01 T01550107  RH  073%=      5-min Rain = 0
KPD1 120719Z 19002KT 16/11 A3014 RMK A01 T01550108  RH  073%=      5-min Rain = 0
KPD1 120720Z 19002KT 16/11 A3014 RMK A01 T01550108  RH  074%=      5-min Rain = 0
KPD1 120721Z 18002KT 16/11 A3014 RMK A01 T01550108  RH  073%=      5-min Rain = 0
KPD1 120722Z 19002KT 16/11 A3014 RMK A01 T01560108  RH  073%=      5-min Rain = 0
KPD1 120723Z 19002KT 16/11 A3014 RMK A01 T01560108  RH  073%=      5-min Rain = 0
KPD1 120724Z 19002KT 16/11 A3014 RMK A01 T01570109  RH  073%=      5-min Rain = 0
KPD1 120725Z 19002KT 16/11 A3014 RMK A01 T01570109  RH  073%=      5-min Rain = 0
KPD1 120726Z 20002KT 16/11 A3014 RMK A01 T01580109  RH  073%=      5-min Rain = 0
KPD1 120727Z 20003KT 16/11 A3014 RMK A01 T01590109  RH  072%=      5-min Rain = 0
KPD1 120728Z 20003KT 16/11 A3014 RMK A01 T01600109  RH  072%=      5-min Rain = 0
KPD1 120729Z 20003KT 16/11 A3014 RMK A01 T01600109  RH  072%=      5-min Rain = 0
KPD1 120730Z 20003KT 16/11 A3014 RMK A01 T01610109  RH  071%=      5-min Rain = 0
KPD1 120731Z 21004KT 16/11 A3014 RMK A01 T01610109  RH  071%=      5-min Rain = 0
KPD1 120732Z 21004KT 16/11 A3014 RMK A01 T01610109  RH  071%=      5-min Rain = 0
KPD1 120733Z 21004KT 16/11 A3014 RMK A01 T01610108  RH  071%=      5-min Rain = 0
KPD1 120734Z 20004KT 16/11 A3014 RMK A01 T01610108  RH  071%=      5-min Rain = 0
KPD1 120735Z 20004KT 16/11 A3014 RMK A01 T01610108  RH  071%=      5-min Rain = 0
KPD1 120736Z 20004KT 16/11 A3014 RMK A01 T01610108  RH  071%=      5-min Rain = 0
KPD1 120737Z 21004KT 16/11 A3014 RMK A01 T01610108  RH  071%=      5-min Rain = 0
KPD1 120738Z 21004KT 16/11 A3014 RMK A01 T01610108  RH  071%=      5-min Rain = 0
KPD1 120739Z 21004KT 16/11 A3014 RMK A01 T01600108  RH  071%=      5-min Rain = 0
KPD1 120740Z 20004KT 16/11 A3014 RMK A01 T01600108  RH  071%=      5-min Rain = 0
KPD1 120741Z 20004KT 16/11 A3014 RMK A01 T01590108  RH  071%=      5-min Rain = 0
KPD1 120742Z 20005KT 16/11 A3014 RMK A01 T01590108  RH  072%=      5-min Rain = 0
KPD1 120743Z 20005KT 16/11 A3014 RMK A01 T01590108  RH  072%=      5-min Rain = 0
KPD1 120744Z 21005KT 16/11 A3014 RMK A01 T01580108  RH  072%=      5-min Rain = 0
KPD1 120745Z 21005KT 16/11 A3014 RMK A01 T01580108  RH  072%=      5-min Rain = 0
KPD1 120746Z 21005KT 16/11 A3014 RMK A01 T01580108  RH  072%=      5-min Rain = 0
KPD1 120747Z 21004KT 16/11 A3014 RMK A01 T01580108  RH  072%=      5-min Rain = 0
KPD1 120748Z 20004KT 16/11 A3014 RMK A01 T01580108  RH  072%=      5-min Rain = 0
KPD1 120749Z 20005KT 16/11 A3014 RMK A01 T01590108  RH  072%=      5-min Rain = 0
KPD1 120750Z 20005KT 16/11 A3014 RMK A01 T01590108  RH  072%=      5-min Rain = 0
KPD1 120751Z 20004KT 16/11 A3014 RMK A01 T01590108  RH  072%=      5-min Rain = 0
KPD1 120752Z 20004KT 16/11 A3014 RMK A01 T01590108  RH  072%=      5-min Rain = 0
KPD1 120753Z 20004KT 16/11 A3014 RMK A01 T01590108  RH  072%=      5-min Rain = 0
KPD1 120754Z 20004KT 16/11 A3014 RMK A01 T01580108  RH  072%=      5-min Rain = 0
KPD1 120755Z 20004KT 16/11 A3014 RMK A01 T01580108  RH  072%=      5-min Rain = 0
KPD1 120756Z 20003KT 16/11 A3014 RMK A01 T01580108  RH  072%=      5-min Rain = 0
KPD1 120757Z 20003KT 16/11 A3014 RMK A01 T01580109  RH  072%=      5-min Rain = 0
KPD1 120758Z 20003KT 16/11 A3014 RMK A01 T01580108  RH  072%=      5-min Rain = 0
KPD1 120759Z 20003KT 16/11 A3014 RMK A01 T01580108  RH  072%=      5-min Rain = 0
KPD1 120800Z 20003KT 16/11 A3014 RMK A01 T01580108  RH  072%=      5-min Rain = 0
KPD1 120801Z 20003KT 16/11 A3014 RMK A01 T01580108  RH  072%=      5-min Rain = 0
KPD1 120802Z 20003KT 16/11 A3014 RMK A01 T01580108  RH  072%=      5-min Rain = 0
KPD1 120803Z 20003KT 16/11 A3014 RMK A01 T01580108  RH  073%=      5-min Rain = 0
KPD1 120804Z 20003KT 16/11 A3014 RMK A01 T01570108  RH  073%=      5-min Rain = 0
KPD1 120805Z 20003KT 16/11 A3014 RMK A01 T01580109  RH  073%=      5-min Rain = 0
KPD1 120806Z 20003KT 16/11 A3014 RMK A01 T01580109  RH  072%=      5-min Rain = 0
KPD1 120807Z 20003KT 16/11 A3014 RMK A01 T01580109  RH  072%=      5-min Rain = 0
KPD1 120808Z 19003KT 16/11 A3014 RMK A01 T01580109  RH  072%=      5-min Rain = 0
KPD1 120809Z 20003KT 16/11 A3014 RMK A01 T01590109  RH  072%=      5-min Rain = 0
KPD1 120810Z 21003KT 16/11 A3014 RMK A01 T01600109  RH  072%=      5-min Rain = 0
KPD1 120811Z 21003KT 16/11 A3014 RMK A01 T01600109  RH  072%=      5-min Rain = 0
KPD1 120812Z 21003KT 16/11 A3014 RMK A01 T01600109  RH  072%=      5-min Rain = 0
KPD1 120813Z 21004KT 16/11 A3013 RMK A01 T01600108  RH  072%=      5-min Rain = 0
KPD1 120814Z 21004KT 16/11 A3013 RMK A01 T01590108  RH  072%=      5-min Rain = 0
KPD1 120815Z 21004KT 16/11 A3013 RMK A01 T01590109  RH  072%=      5-min Rain = 0
KPD1 120816Z 21004KT 16/11 A3013 RMK A01 T01590109  RH  072%=      5-min Rain = 0
KPD1 120817Z 21004KT 16/11 A3013 RMK A01 T01590108  RH  072%=      5-min Rain = 0
KPD1 120818Z 21004KT 16/11 A3014 RMK A01 T01580108  RH  072%=      5-min Rain = 0
KPD1 120819Z 21003KT 16/11 A3014 RMK A01 T01590109  RH  072%=      5-min Rain = 0
KPD1 120820Z 21003KT 16/11 A3014 RMK A01 T01590108  RH  072%=      5-min Rain = 0
KPD1 120821Z 21003KT 16/11 A3014 RMK A01 T01580108  RH  072%=      5-min Rain = 0
KPD1 120822Z 21002KT 16/11 A3014 RMK A01 T01580108  RH  072%=      5-min Rain = 0
KPD1 120823Z 21002KT 16/11 A3014 RMK A01 T01580108  RH  072%=      5-min Rain = 0
KPD1 120824Z 21002KT 16/11 A3014 RMK A01 T01580108  RH  072%=      5-min Rain = 0
KPD1 120825Z 20002KT 16/11 A3013 RMK A01 T01580108  RH  072%=      5-min Rain = 0
KPD1 120826Z 19002KT 16/11 A3013 RMK A01 T01580108  RH  072%=      5-min Rain = 0
KPD1 120827Z 19002KT 16/11 A3013 RMK A01 T01570108  RH  073%=      5-min Rain = 0
KPD1 120828Z 19002KT 16/11 A3013 RMK A01 T01560108  RH  073%=      5-min Rain = 0
KPD1 120829Z 19001KT 16/11 A3013 RMK A01 T01560108  RH  073%=      5-min Rain = 0
KPD1 120830Z 19001KT 16/11 A3013 RMK A01 T01560109  RH  074%=      5-min Rain = 0
KPD1 120831Z 19001KT 16/11 A3013 RMK A01 T01550108  RH  074%=      5-min Rain = 0
KPD1 120832Z 19001KT 16/11 A3013 RMK A01 T01550108  RH  074%=      5-min Rain = 0
KPD1 120833Z 19002KT 16/11 A3013 RMK A01 T01550108  RH  073%=      5-min Rain = 0
KPD1 120834Z 19002KT 16/11 A3013 RMK A01 T01560109  RH  073%=      5-min Rain = 0
KPD1 120835Z 19002KT 16/11 A3013 RMK A01 T01580109  RH  073%=      5-min Rain = 0
KPD1 120836Z 19002KT 16/11 A3013 RMK A01 T01580109  RH  073%=      5-min Rain = 0
KPD1 120837Z 19003KT 16/11 A3013 RMK A01 T01590109  RH  072%=      5-min Rain = 0
KPD1 120838Z 19003KT 16/11 A3013 RMK A01 T01590109  RH  072%=      5-min Rain = 0
KPD1 120839Z 20002KT 16/11 A3013 RMK A01 T01590109  RH  072%=      5-min Rain = 0
KPD1 120840Z 21003KT 16/11 A3013 RMK A01 T01590109  RH  072%=      5-min Rain = 0
KPD1 120841Z 21003KT 16/11 A3013 RMK A01 T01590109  RH  072%=      5-min Rain = 0
KPD1 120842Z 21002KT 16/11 A3012 RMK A01 T01590109  RH  072%=      5-min Rain = 0
KPD1 120843Z 21002KT 16/11 A3012 RMK A01 T01590109  RH  072%=      5-min Rain = 0
KPD1 120844Z 22002KT 16/11 A3012 RMK A01 T01580109  RH  072%=      5-min Rain = 0
KPD1 120845Z 22002KT 16/11 A3012 RMK A01 T01580109  RH  072%=      5-min Rain = 0
KPD1 120846Z 22002KT 16/11 A3012 RMK A01 T01580109  RH  072%=      5-min Rain = 0
KPD1 120847Z 22002KT 16/11 A3013 RMK A01 T01580108  RH  072%=      5-min Rain = 0
KPD1 120848Z 22002KT 16/11 A3013 RMK A01 T01570108  RH  072%=      5-min Rain = 0
KPD1 120849Z 22002KT 16/11 A3013 RMK A01 T01570108  RH  072%=      5-min Rain = 0
KPD1 120850Z 22002KT 16/11 A3013 RMK A01 T01560107  RH  072%=      5-min Rain = 0
KPD1 120851Z 22002KT 16/11 A3013 RMK A01 T01560107  RH  073%=      5-min Rain = 0
KPD1 120852Z 22002KT 16/11 A3013 RMK A01 T01550106  RH  073%=      5-min Rain = 0
KPD1 120853Z 22002KT 16/11 A3013 RMK A01 T01550106  RH  073%=      5-min Rain = 0
KPD1 120854Z 22003KT 15/11 A3012 RMK A01 T01540106  RH  073%=      5-min Rain = 0
KPD1 120855Z 22003KT 15/11 A3012 RMK A01 T01540105  RH  073%=      5-min Rain = 0
KPD1 120856Z 21003KT 15/11 A3012 RMK A01 T01530105  RH  073%=      5-min Rain = 0
KPD1 120857Z 21003KT 15/11 A3012 RMK A01 T01530105  RH  073%=      5-min Rain = 0
KPD1 120858Z 21002KT 15/11 A3012 RMK A01 T01530105  RH  073%=      5-min Rain = 0
KPD1 120859Z 20002KT 15/11 A3012 RMK A01 T01530105  RH  073%=      5-min Rain = 0
KPD1 120900Z 20002KT 15/11 A3012 RMK A01 T01540105  RH  072%=      5-min Rain = 0
KPD1 120901Z 20002KT 15/11 A3012 RMK A01 T01540105  RH  072%=      5-min Rain = 0
KPD1 120902Z 20001KT 15/10 A3012 RMK A01 T01540104  RH  072%=      5-min Rain = 0
KPD1 120903Z 21002KT 15/10 A3012 RMK A01 T01540104  RH  072%=      5-min Rain = 0
KPD1 120904Z 21002KT 16/11 A3012 RMK A01 T01560105  RH  072%=      5-min Rain = 0
KPD1 120905Z 21001KT 16/11 A3012 RMK A01 T01560105  RH  071%=      5-min Rain = 0
KPD1 120906Z 21001KT 16/11 A3012 RMK A01 T01570105  RH  071%=      5-min Rain = 0
KPD1 120907Z 22002KT 16/11 A3012 RMK A01 T01570105  RH  071%=      5-min Rain = 0
KPD1 120908Z 22002KT 16/10 A3012 RMK A01 T01560104  RH  071%=      5-min Rain = 0
KPD1 120909Z 22002KT 16/10 A3012 RMK A01 T01570104  RH  071%=      5-min Rain = 0
KPD1 120910Z 23002KT 16/10 A3012 RMK A01 T01560104  RH  071%=      5-min Rain = 0
KPD1 120911Z 24003KT 16/10 A3012 RMK A01 T01560104  RH  071%=      5-min Rain = 0
KPD1 120912Z 24003KT 16/10 A3012 RMK A01 T01570104  RH  071%=      5-min Rain = 0
KPD1 120913Z 24003KT 16/10 A3012 RMK A01 T01570104  RH  071%=      5-min Rain = 0
KPD1 120914Z 24003KT 16/10 A3012 RMK A01 T01560104  RH  071%=      5-min Rain = 0
KPD1 120915Z 24003KT 16/10 A3012 RMK A01 T01560104  RH  071%=      5-min Rain = 0
KPD1 120916Z 24004KT 16/10 A3012 RMK A01 T01550103  RH  071%=      5-min Rain = 0
KPD1 120917Z 23004KT 16/10 A3012 RMK A01 T01550103  RH  071%=      5-min Rain = 0
KPD1 120918Z 23004KT 15/10 A3012 RMK A01 T01540103  RH  072%=      5-min Rain = 0
KPD1 120919Z 23004KT 15/10 A3012 RMK A01 T01540103  RH  072%=      5-min Rain = 0
KPD1 120920Z 23004KT 15/10 A3012 RMK A01 T01540103  RH  072%=      5-min Rain = 0
KPD1 120921Z 23004KT 15/10 A3012 RMK A01 T01540103  RH  072%=      5-min Rain = 0
KPD1 120922Z 23004KT 15/10 A3012 RMK A01 T01530103  RH  072%=      5-min Rain = 0
KPD1 120923Z 24004KT 15/10 A3012 RMK A01 T01530103  RH  072%=      5-min Rain = 0
KPD1 120924Z 24004KT 15/10 A3012 RMK A01 T01530103  RH  072%=      5-min Rain = 0
KPD1 120925Z 24004KT 15/10 A3012 RMK A01 T01540103  RH  072%=      5-min Rain = 0
KPD1 120926Z 24004KT 15/10 A3012 RMK A01 T01540103  RH  071%=      5-min Rain = 0
KPD1 120927Z 24004KT 15/10 A3012 RMK A01 T01540103  RH  072%=      5-min Rain = 0
KPD1 120928Z 24004KT 15/10 A3012 RMK A01 T01540103  RH  072%=      5-min Rain = 0
KPD1 120929Z 24004KT 15/10 A3012 RMK A01 T01530103  RH  072%=      5-min Rain = 0
KPD1 120930Z 24004KT 15/10 A3012 RMK A01 T01520102  RH  072%=      5-min Rain = 0
KPD1 120931Z 23004KT 15/10 A3012 RMK A01 T01520102  RH  072%=      5-min Rain = 0
KPD1 120932Z 23004KT 15/10 A3012 RMK A01 T01510102  RH  073%=      5-min Rain = 0
KPD1 120933Z 23004KT 15/10 A3011 RMK A01 T01510102  RH  073%=      5-min Rain = 0
KPD1 120934Z 23004KT 15/10 A3011 RMK A01 T01510102  RH  073%=      5-min Rain = 0
KPD1 120935Z 23004KT 15/10 A3011 RMK A01 T01510102  RH  073%=      5-min Rain = 0
KPD1 120936Z 22004KT 15/10 A3011 RMK A01 T01500102  RH  073%=      5-min Rain = 0
KPD1 120937Z 22004KT 15/10 A3011 RMK A01 T01500102  RH  073%=      5-min Rain = 0
KPD1 120938Z 23004KT 15/10 A3012 RMK A01 T01500102  RH  073%=      5-min Rain = 0
KPD1 120939Z 23005KT 15/10 A3012 RMK A01 T01500102  RH  073%=      5-min Rain = 0
KPD1 120940Z 24005KT 15/10 A3012 RMK A01 T01500102  RH  073%=      5-min Rain = 0
KPD1 120941Z 24005KT 15/10 A3012 RMK A01 T01490101  RH  073%=      5-min Rain = 0
KPD1 120942Z 24005KT 15/10 A3012 RMK A01 T01490102  RH  073%=      5-min Rain = 0
KPD1 120943Z 24005KT 15/10 A3012 RMK A01 T01500102  RH  073%=      5-min Rain = 0
KPD1 120944Z 24005KT 15/10 A3012 RMK A01 T01500102  RH  073%=      5-min Rain = 0
KPD1 120945Z 23005KT 15/10 A3012 RMK A01 T01500102  RH  073%=      5-min Rain = 0
KPD1 120946Z 24004KT 15/10 A3012 RMK A01 T01500102  RH  073%=      5-min Rain = 0
KPD1 120947Z 24004KT 15/10 A3012 RMK A01 T01500102  RH  073%=      5-min Rain = 0
KPD1 120948Z 23004KT 15/10 A3012 RMK A01 T01500102  RH  073%=      5-min Rain = 0
KPD1 120949Z 24004KT 15/10 A3012 RMK A01 T01500102  RH  073%=      5-min Rain = 0
KPD1 120950Z 24004KT 15/10 A3012 RMK A01 T01500102  RH  073%=      5-min Rain = 0
KPD1 120951Z 24004KT 15/10 A3012 RMK A01 T01500102  RH  073%=      5-min Rain = 0
KPD1 120952Z 24004KT 15/10 A3012 RMK A01 T01490102  RH  073%=      5-min Rain = 0
KPD1 120953Z 24004KT 15/10 A3012 RMK A01 T01490102  RH  073%=      5-min Rain = 0
KPD1 120954Z 24004KT 15/10 A3012 RMK A01 T01490102  RH  073%=      5-min Rain = 0
KPD1 120955Z 24004KT 15/10 A3012 RMK A01 T01490102  RH  073%=      5-min Rain = 0
KPD1 120956Z 24004KT 15/10 A3012 RMK A01 T01490101  RH  073%=      5-min Rain = 0
KPD1 120957Z 24004KT 15/10 A3012 RMK A01 T01500102  RH  073%=      5-min Rain = 0
KPD1 120958Z 24003KT 15/10 A3012 RMK A01 T01510102  RH  072%=      5-min Rain = 0
KPD1 120959Z 24003KT 15/10 A3012 RMK A01 T01520101  RH  072%=      5-min Rain = 0
KPD1 121000Z 24003KT 15/10 A3012 RMK A01 T01510101  RH  072%=      5-min Rain = 0
KPD1 121001Z 24003KT 15/10 A3012 RMK A01 T01500101  RH  072%=      5-min Rain = 0
KPD1 121002Z 25003KT 15/10 A3012 RMK A01 T01490101  RH  073%=      5-min Rain = 0
KPD1 121003Z 24003KT 15/10 A3011 RMK A01 T01480101  RH  073%=      5-min Rain = 0
KPD1 121004Z 24003KT 15/10 A3011 RMK A01 T01480100  RH  073%=      5-min Rain = 0
KPD1 121005Z 24003KT 15/10 A3011 RMK A01 T01470100  RH  074%=      5-min Rain = 0
KPD1 121006Z 24003KT 15/10 A3011 RMK A01 T01450100  RH  074%=      5-min Rain = 0
KPD1 121007Z 23003KT 14/10 A3011 RMK A01 T01440100  RH  074%=      5-min Rain = 0
KPD1 121008Z 23003KT 14/10 A3011 RMK A01 T01440100  RH  075%=      5-min Rain = 0
KPD1 121009Z 23004KT 14/10 A3011 RMK A01 T01440100  RH  075%=      5-min Rain = 0
KPD1 121010Z 23003KT 14/10 A3011 RMK A01 T01440100  RH  075%=      5-min Rain = 0
KPD1 121011Z 22003KT 14/10 A3011 RMK A01 T01440100  RH  075%=      5-min Rain = 0
KPD1 121012Z 22003KT 15/10 A3011 RMK A01 T01450100  RH  074%=      5-min Rain = 0
KPD1 121013Z 22004KT 15/10 A3011 RMK A01 T01450100  RH  074%=      5-min Rain = 0
KPD1 121014Z 22004KT 15/10 A3011 RMK A01 T01450100  RH  074%=      5-min Rain = 0
KPD1 121015Z 23004KT 14/10 A3011 RMK A01 T01440100  RH  075%=      5-min Rain = 0
KPD1 121016Z 22004KT 14/10 A3011 RMK A01 T01440100  RH  075%=      5-min Rain = 0
KPD1 121017Z 22004KT 14/10 A3011 RMK A01 T01440100  RH  075%=      5-min Rain = 0
KPD1 121018Z 22004KT 14/10 A3011 RMK A01 T01440100  RH  075%=      5-min Rain = 0
KPD1 121019Z 22004KT 14/10 A3011 RMK A01 T01440100  RH  074%=      5-min Rain = 0
KPD1 121020Z 22004KT 14/10 A3011 RMK A01 T01440099  RH  074%=      5-min Rain = 0
KPD1 121021Z 22004KT 14/10 A3011 RMK A01 T01440100  RH  075%=      5-min Rain = 0
KPD1 121022Z 21004KT 14/10 A3011 RMK A01 T01440100  RH  074%=      5-min Rain = 0
KPD1 121023Z 21004KT 14/10 A3011 RMK A01 T01440100  RH  074%=      5-min Rain = 0
KPD1 121024Z 21004KT 14/10 A3011 RMK A01 T01440100  RH  075%=      5-min Rain = 0
KPD1 121025Z 22004KT 15/10 A3011 RMK A01 T01450100  RH  074%=      5-min Rain = 0
KPD1 121026Z 22004KT 15/10 A3011 RMK A01 T01450100  RH  074%=      5-min Rain = 0
KPD1 121027Z 22004KT 15/10 A3011 RMK A01 T01450099  RH  074%=      5-min Rain = 0
KPD1 121028Z 22004KT 15/10 A3011 RMK A01 T01450099  RH  074%=      5-min Rain = 0
KPD1 121029Z 22004KT 15/10 A3011 RMK A01 T01450100  RH  074%=      5-min Rain = 0
KPD1 121030Z 23004KT 14/10 A3011 RMK A01 T01440100  RH  074%=      5-min Rain = 0
KPD1 121031Z 23005KT 14/10 A3011 RMK A01 T01440100  RH  075%=      5-min Rain = 0
KPD1 121032Z 23005KT 14/10 A3011 RMK A01 T01440100  RH  075%=      5-min Rain = 0
KPD1 121033Z 23004KT 14/10 A3011 RMK A01 T01440100  RH  074%=      5-min Rain = 0
KPD1 121034Z 23004KT 15/10 A3011 RMK A01 T01450100  RH  074%=      5-min Rain = 0
KPD1 121035Z 23004KT 15/10 A3011 RMK A01 T01460100  RH  074%=      5-min Rain = 0
KPD1 121036Z 23004KT 15/10 A3011 RMK A01 T01460100  RH  074%=      5-min Rain = 0
KPD1 121037Z 23004KT 15/10 A3011 RMK A01 T01450100  RH  074%=      5-min Rain = 0
KPD1 121038Z 23004KT 15/10 A3011 RMK A01 T01450100  RH  074%=      5-min Rain = 0
KPD1 121039Z 24004KT 14/10 A3011 RMK A01 T01440099  RH  074%=      5-min Rain = 0
KPD1 121040Z 24005KT 14/10 A3011 RMK A01 T01440099  RH  074%=      5-min Rain = 0
KPD1 121041Z 24005KT 14/10 A3011 RMK A01 T01430099  RH  075%=      5-min Rain = 0
KPD1 121042Z 24005KT 14/10 A3011 RMK A01 T01430099  RH  075%=      5-min Rain = 0
KPD1 121043Z 24005KT 14/10 A3011 RMK A01 T01430099  RH  075%=      5-min Rain = 0
KPD1 121044Z 24005KT 14/10 A3011 RMK A01 T01430099  RH  075%=      5-min Rain = 0
KPD1 121045Z 24005KT 14/10 A3011 RMK A01 T01430099  RH  075%=      5-min Rain = 0
KPD1 121046Z 24005KT 14/10 A3011 RMK A01 T01430099  RH  075%=      5-min Rain = 0
KPD1 121047Z 24005KT 14/10 A3011 RMK A01 T01440099  RH  074%=      5-min Rain = 0
KPD1 121048Z 24005KT 15/10 A3011 RMK A01 T01450100  RH  074%=      5-min Rain = 0
KPD1 121049Z 24005KT 15/10 A3011 RMK A01 T01460100  RH  074%=      5-min Rain = 0
KPD1 121050Z 24005KT 15/10 A3011 RMK A01 T01460099  RH  073%=      5-min Rain = 0
KPD1 121051Z 24005KT 15/10 A3011 RMK A01 T01470100  RH  073%=      5-min Rain = 0
KPD1 121052Z 24005KT 15/10 A3011 RMK A01 T01480099  RH  073%=      5-min Rain = 0
KPD1 121053Z 23004KT 15/10 A3011 RMK A01 T01480099  RH  073%=      5-min Rain = 0
KPD1 121054Z 24004KT 15/10 A3011 RMK A01 T01490099  RH  072%=      5-min Rain = 0
KPD1 121055Z 24005KT 15/10 A3011 RMK A01 T01490099  RH  072%=      5-min Rain = 0
KPD1 121056Z 24005KT 15/10 A3011 RMK A01 T01500099  RH  072%=      5-min Rain = 0
KPD1 121057Z 24005KT 15/10 A3011 RMK A01 T01500099  RH  071%=      5-min Rain = 0
KPD1 121058Z 25005KT 15/10 A3011 RMK A01 T01500099  RH  071%=      5-min Rain = 0
KPD1 121059Z 25006KT 15/10 A3011 RMK A01 T01500099  RH  071%=      5-min Rain = 0
KPD1 121100Z 25006KT 15/10 A3011 RMK A01 T01500099  RH  071%=      5-min Rain = 0
KPD1 121101Z 25006KT 15/10 A3011 RMK A01 T01500099  RH  071%=      5-min Rain = 0
KPD1 121102Z 25006KT 15/10 A3011 RMK A01 T01510099  RH  071%=      5-min Rain = 0
KPD1 121103Z 25006KT 15/10 A3011 RMK A01 T01520099  RH  071%=      5-min Rain = 0
KPD1 121104Z 25006KT 15/10 A3011 RMK A01 T01530100  RH  070%=      5-min Rain = 0
KPD1 121105Z 25005KT 15/10 A3011 RMK A01 T01540100  RH  070%=      5-min Rain = 0
KPD1 121106Z 25005KT 15/10 A3011 RMK A01 T01540099  RH  070%=      5-min Rain = 0
KPD1 121107Z 25005KT 15/10 A3011 RMK A01 T01540099  RH  070%=      5-min Rain = 0
KPD1 121108Z 25006KT 15/10 A3011 RMK A01 T01540099  RH  070%=      5-min Rain = 0
KPD1 121109Z 25005KT 16/10 A3011 RMK A01 T01550100  RH  070%=      5-min Rain = 0
KPD1 121110Z 24005KT 16/10 A3011 RMK A01 T01550099  RH  069%=      5-min Rain = 0
KPD1 121111Z 24005KT 16/10 A3011 RMK A01 T01560099  RH  069%=      5-min Rain = 0
KPD1 121112Z 24005KT 16/10 A3011 RMK A01 T01570099  RH  069%=      5-min Rain = 0
KPD1 121113Z 24005KT 16/10 A3011 RMK A01 T01570099  RH  069%=      5-min Rain = 0
KPD1 121114Z 24005KT 16/10 A3011 RMK A01 T01570099  RH  069%=      5-min Rain = 0
KPD1 121115Z 23005KT 16/10 A3011 RMK A01 T01560099  RH  069%=      5-min Rain = 0
KPD1 121116Z 23005KT 16/10 A3011 RMK A01 T01560099  RH  069%=      5-min Rain = 0
KPD1 121117Z 23005KT 16/10 A3011 RMK A01 T01550099  RH  069%=      5-min Rain = 0
KPD1 121118Z 23005KT 16/10 A3011 RMK A01 T01550098  RH  069%=      5-min Rain = 0
KPD1 121119Z 23005KT 16/10 A3011 RMK A01 T01550099  RH  069%=      5-min Rain = 0
KPD1 121120Z 23006KT 16/10 A3011 RMK A01 T01550099  RH  069%=      5-min Rain = 0
KPD1 121121Z 23006KT 16/10 A3011 RMK A01 T01550099  RH  069%=      5-min Rain = 0
KPD1 121122Z 23006KT 15/10 A3011 RMK A01 T01540098  RH  069%=      5-min Rain = 0
KPD1 121123Z 23006KT 15/10 A3011 RMK A01 T01540098  RH  069%=      5-min Rain = 0
KPD1 121124Z 23006KT 16/10 A3011 RMK A01 T01550099  RH  069%=      5-min Rain = 0
KPD1 121125Z 23006KT 16/10 A3011 RMK A01 T01560099  RH  069%=      5-min Rain = 0
KPD1 121126Z 23005KT 16/10 A3011 RMK A01 T01570099  RH  068%=      5-min Rain = 0
KPD1 121127Z 23005KT 16/10 A3011 RMK A01 T01570099  RH  068%=      5-min Rain = 0
KPD1 121128Z 23005KT 16/10 A3011 RMK A01 T01570098  RH  068%=      5-min Rain = 0
KPD1 121129Z 24005KT 16/10 A3011 RMK A01 T01570099  RH  068%=      5-min Rain = 0
KPD1 121130Z 24005KT 16/10 A3011 RMK A01 T01570098  RH  068%=      5-min Rain = 0
KPD1 121131Z 23005KT 16/10 A3011 RMK A01 T01560098  RH  068%=      5-min Rain = 0
KPD1 121132Z 23005KT 16/10 A3011 RMK A01 T01560098  RH  068%=      5-min Rain = 0
KPD1 121133Z 23005KT 16/10 A3011 RMK A01 T01560098  RH  068%=      5-min Rain = 0
KPD1 121134Z 23005KT 16/10 A3011 RMK A01 T01560098  RH  068%=      5-min Rain = 0
KPD1 121135Z 23005KT 16/10 A3011 RMK A01 T01550098  RH  069%=      5-min Rain = 0
KPD1 121136Z 23005KT 16/10 A3011 RMK A01 T01550098  RH  069%=      5-min Rain = 0
KPD1 121137Z 23005KT 15/10 A3011 RMK A01 T01540098  RH  069%=      5-min Rain = 0
KPD1 121138Z 23005KT 15/10 A3011 RMK A01 T01540098  RH  069%=      5-min Rain = 0
KPD1 121139Z 23005KT 15/10 A3011 RMK A01 T01530097  RH  069%=      5-min Rain = 0
KPD1 121140Z 22005KT 15/10 A3011 RMK A01 T01530098  RH  070%=      5-min Rain = 0
KPD1 121141Z 22005KT 15/10 A3011 RMK A01 T01520097  RH  070%=      5-min Rain = 0
KPD1 121142Z 22005KT 15/10 A3011 RMK A01 T01520098  RH  070%=      5-min Rain = 0
KPD1 121143Z 22005KT 15/10 A3011 RMK A01 T01520098  RH  070%=      5-min Rain = 0
KPD1 121144Z 22005KT 15/10 A3011 RMK A01 T01520097  RH  070%=      5-min Rain = 0
KPD1 121145Z 22004KT 15/10 A3011 RMK A01 T01510097  RH  070%=      5-min Rain = 0
KPD1 121146Z 22005KT 15/10 A3011 RMK A01 T01510097  RH  070%=      5-min Rain = 0
KPD1 121147Z 22004KT 15/10 A3011 RMK A01 T01510097  RH  070%=      5-min Rain = 0
KPD1 121148Z 21004KT 15/10 A3011 RMK A01 T01500097  RH  071%=      5-min Rain = 0
KPD1 121149Z 21004KT 15/10 A3011 RMK A01 T01500097  RH  071%=      5-min Rain = 0
KPD1 121150Z 20004KT 15/10 A3011 RMK A01 T01490097  RH  071%=      5-min Rain = 0
KPD1 121151Z 20003KT 15/10 A3011 RMK A01 T01490097  RH  071%=      5-min Rain = 0
KPD1 121152Z 20003KT 15/10 A3011 RMK A01 T01480097  RH  071%=      5-min Rain = 0
KPD1 121153Z 19003KT 15/10 A3011 RMK A01 T01480097  RH  072%=      5-min Rain = 0
KPD1 121154Z 19003KT 15/10 A3011 RMK A01 T01470097  RH  072%=      5-min Rain = 0
KPD1 121155Z 19003KT 15/10 A3011 RMK A01 T01460097  RH  072%=      5-min Rain = 0
KPD1 121156Z 19002KT 15/10 A3011 RMK A01 T01460097  RH  072%=      5-min Rain = 0
KPD1 121157Z 18002KT 15/10 A3011 RMK A01 T01450097  RH  073%=      5-min Rain = 0
KPD1 121158Z 18002KT 14/10 A3011 RMK A01 T01440097  RH  073%=      5-min Rain = 0
KPD1 121159Z 18002KT 14/10 A3011 RMK A01 T01440097  RH  073%=      5-min Rain = 0
KPD1 121200Z 17002KT 14/10 A3011 RMK A01 T01440097  RH  073%=      5-min Rain = 0
KPD1 121201Z 16002KT 14/10 A3011 RMK A01 T01430096  RH  073%=      5-min Rain = 0
KPD1 121202Z 16002KT 14/10 A3011 RMK A01 T01430097  RH  074%=      5-min Rain = 0
KPD1 121203Z 16003KT 14/10 A3011 RMK A01 T01420097  RH  074%=      5-min Rain = 0
KPD1 121204Z 16003KT 14/10 A3011 RMK A01 T01420097  RH  074%=      5-min Rain = 0
KPD1 121205Z 16003KT 14/10 A3011 RMK A01 T01420098  RH  074%=      5-min Rain = 0
KPD1 121206Z 16003KT 14/10 A3011 RMK A01 T01420098  RH  075%=      5-min Rain = 0
KPD1 121207Z 16003KT 14/10 A3011 RMK A01 T01420098  RH  075%=      5-min Rain = 0
KPD1 121208Z 16003KT 14/10 A3011 RMK A01 T01420098  RH  075%=      5-min Rain = 0
KPD1 121209Z 16003KT 14/10 A3011 RMK A01 T01410098  RH  075%=      5-min Rain = 0
KPD1 121210Z 16003KT 14/10 A3011 RMK A01 T01410098  RH  075%=      5-min Rain = 0
KPD1 121211Z 16004KT 14/10 A3011 RMK A01 T01410098  RH  076%=      5-min Rain = 0
KPD1 121212Z 16003KT 14/10 A3011 RMK A01 T01400098  RH  076%=      5-min Rain = 0
KPD1 121213Z 16004KT 14/10 A3011 RMK A01 T01410099  RH  076%=      5-min Rain = 0
KPD1 121214Z 16003KT 14/10 A3011 RMK A01 T01400098  RH  076%=      5-min Rain = 0
KPD1 121215Z 16003KT 14/10 A3011 RMK A01 T01410099  RH  076%=      5-min Rain = 0
KPD1 121216Z 16004KT 14/10 A3011 RMK A01 T01410099  RH  076%=      5-min Rain = 0
KPD1 121217Z 16003KT 14/10 A3011 RMK A01 T01410099  RH  076%=      5-min Rain = 0
KPD1 121218Z 16003KT 14/10 A3011 RMK A01 T01400099  RH  076%=      5-min Rain = 0
KPD1 121219Z 16003KT 14/10 A3011 RMK A01 T01400100  RH  076%=      5-min Rain = 0
KPD1 121220Z 16003KT 14/10 A3011 RMK A01 T01400100  RH  077%=      5-min Rain = 0
KPD1 121221Z 17003KT 14/10 A3011 RMK A01 T01400100  RH  077%=      5-min Rain = 0
KPD1 121222Z 17003KT 14/10 A3011 RMK A01 T01400100  RH  077%=      5-min Rain = 0
KPD1 121223Z 17002KT 14/10 A3011 RMK A01 T01400100  RH  077%=      5-min Rain = 0
KPD1 121224Z 17002KT 14/10 A3011 RMK A01 T01400099  RH  077%=      5-min Rain = 0
KPD1 121225Z 17003KT 14/10 A3011 RMK A01 T01400100  RH  077%=      5-min Rain = 0
KPD1 121226Z 16003KT 14/10 A3011 RMK A01 T01400099  RH  077%=      5-min Rain = 0
KPD1 121227Z 16003KT 14/10 A3011 RMK A01 T01390100  RH  077%=      5-min Rain = 0
KPD1 121228Z 16003KT 14/10 A3011 RMK A01 T01390100  RH  077%=      5-min Rain = 0
KPD1 121229Z 16003KT 14/10 A3011 RMK A01 T01390100  RH  077%=      5-min Rain = 0
KPD1 121230Z 16003KT 14/10 A3011 RMK A01 T01390100  RH  077%=      5-min Rain = 0
KPD1 121231Z 16003KT 14/10 A3011 RMK A01 T01390100  RH  077%=      5-min Rain = 0
KPD1 121232Z 16003KT 14/10 A3011 RMK A01 T01380099  RH  077%=      5-min Rain = 0
KPD1 121233Z 17004KT 14/10 A301 RMK A01 T01380099  RH  077%=      5-min Rain = 0
KPD1 121234Z 17004KT 14/10 A301 RMK A01 T01380099  RH  077%=      5-min Rain = 0
KPD1 121235Z 18004KT 14/10 A301 RMK A01 T01380099  RH  077%=      5-min Rain = 0
KPD1 121236Z 18004KT 14/10 A301 RMK A01 T01380099  RH  077%=      5-min Rain = 0
KPD1 121237Z 19005KT 14/10 A301 RMK A01 T01380099  RH  077%=      5-min Rain = 0
KPD1 121238Z 19004KT 14/10 A301 RMK A01 T01380098  RH  077%=      5-min Rain = 0
KPD1 121239Z 19004KT 14/10 A301 RMK A01 T01380098  RH  077%=      5-min Rain = 0
KPD1 121240Z 19004KT 14/10 A301 RMK A01 T01380098  RH  077%=      5-min Rain = 0
KPD1 121241Z 20004KT 14/10 A301 RMK A01 T01380098  RH  076%=      5-min Rain = 0
KPD1 121242Z 20004KT 14/10 A301 RMK A01 T01380097  RH  076%=      5-min Rain = 0
KPD1 121243Z 20004KT 14/10 A301 RMK A01 T01390097  RH  076%=      5-min Rain = 0
KPD1 121244Z 20004KT 14/10 A301 RMK A01 T01390097  RH  076%=      5-min Rain = 0
KPD1 121245Z 20004KT 14/10 A301 RMK A01 T01390097  RH  076%=      5-min Rain = 0
KPD1 121246Z 20004KT 14/10 A301 RMK A01 T01390097  RH  076%=      5-min Rain = 0
KPD1 121247Z 20004KT 14/10 A301 RMK A01 T01400098  RH  076%=      5-min Rain = 0
KPD1 121248Z 20004KT 14/10 A301 RMK A01 T01400097  RH  075%=      5-min Rain = 0
KPD1 121249Z 19004KT 14/10 A301 RMK A01 T01400098  RH  075%=      5-min Rain = 0
KPD1 121250Z 19004KT 14/10 A301 RMK A01 T01400098  RH  075%=      5-min Rain = 0
KPD1 121251Z 19004KT 14/10 A301 RMK A01 T01410097  RH  075%=      5-min Rain = 0
KPD1 121252Z 20003KT 14/10 A301 RMK A01 T01410097  RH  075%=      5-min Rain = 0
KPD1 121253Z 20003KT 14/10 A301 RMK A01 T01420098  RH  075%=      5-min Rain = 0
KPD1 121254Z 20003KT 14/10 A301 RMK A01 T01420098  RH  075%=      5-min Rain = 0
KPD1 121255Z 20003KT 14/10 A301 RMK A01 T01420098  RH  075%=      5-min Rain = 0
KPD1 121256Z 20003KT 14/10 A301 RMK A01 T01430098  RH  074%=      5-min Rain = 0
KPD1 121257Z 20003KT 14/10 A301 RMK A01 T01430098  RH  074%=      5-min Rain = 0
KPD1 121258Z 20003KT 14/10 A301 RMK A01 T01440098  RH  074%=      5-min Rain = 0
KPD1 121259Z 21003KT 14/10 A301 RMK A01 T01440098  RH  074%=      5-min Rain = 0
KPD1 121300Z 21003KT 14/10 A301 RMK A01 T01440099  RH  074%=      5-min Rain = 0
KPD1 121301Z 21003KT 15/10 A301 RMK A01 T01450099  RH  074%=      5-min Rain = 0
KPD1 121302Z 21003KT 15/10 A301 RMK A01 T01450099  RH  074%=      5-min Rain = 0
KPD1 121303Z 21003KT 15/10 A301 RMK A01 T01460099  RH  073%=      5-min Rain = 0
KPD1 121304Z 21003KT 15/10 A301 RMK A01 T01470099  RH  073%=      5-min Rain = 0
KPD1 121305Z 21003KT 15/10 A301 RMK A01 T01480100  RH  073%=      5-min Rain = 0
KPD1 121306Z 21003KT 15/10 A301 RMK A01 T01490100  RH  073%=      5-min Rain = 0
KPD1 121307Z 20003KT 15/10 A301 RMK A01 T01500100  RH  072%=      5-min Rain = 0
KPD1 121308Z 20002KT 15/10 A301 RMK A01 T01510101  RH  072%=      5-min Rain = 0
KPD1 121309Z 20002KT 15/10 A301 RMK A01 T01520101  RH  072%=      5-min Rain = 0
KPD1 121310Z 20001KT 15/10 A301 RMK A01 T01530101  RH  071%=      5-min Rain = 0
KPD1 121311Z 20001KT 15/10 A301 RMK A01 T01540101  RH  071%=      5-min Rain = 0
KPD1 121312Z 20002KT 16/10 A301 RMK A01 T01550101  RH  070%=      5-min Rain = 0
KPD1 121313Z 19002KT 16/10 A301 RMK A01 T01560101  RH  070%=      5-min Rain = 0
KPD1 121314Z 19002KT 16/10 A301 RMK A01 T01560102  RH  070%=      5-min Rain = 0
KPD1 121315Z 18002KT 16/10 A301 RMK A01 T01570102  RH  070%=      5-min Rain = 0
KPD1 121316Z 18002KT 16/10 A301 RMK A01 T01580102  RH  069%=      5-min Rain = 0
KPD1 121317Z 18002KT 16/10 A301 RMK A01 T01590103  RH  070%=      5-min Rain = 0
KPD1 121318Z 18003KT 16/10 A301 RMK A01 T01590104  RH  070%=      5-min Rain = 0
KPD1 121319Z 18003KT 16/10 A301 RMK A01 T01590104  RH  070%=      5-min Rain = 0
KPD1 121320Z 18003KT 16/10 A301 RMK A01 T01600104  RH  070%=      5-min Rain = 0
KPD1 121321Z 18003KT 16/11 A301 RMK A01 T01600105  RH  069%=      5-min Rain = 0
KPD1 121322Z 19002KT 16/10 A301 RMK A01 T01610104  RH  069%=      5-min Rain = 0
KPD1 121323Z 19002KT 16/10 A301 RMK A01 T01610104  RH  069%=      5-min Rain = 0
KPD1 121324Z 18001KT 16/11 A301 RMK A01 T01620105  RH  069%=      5-min Rain = 0
KPD1 121325Z 19002KT 16/11 A301 RMK A01 T01620105  RH  069%=      5-min Rain = 0
KPD1 121326Z 19001KT 16/10 A301 RMK A01 T01630104  RH  068%=      5-min Rain = 0
KPD1 121327Z 19002KT 16/11 A301 RMK A01 T01640105  RH  068%=      5-min Rain = 0
KPD1 121328Z 19002KT 16/11 A301 RMK A01 T01640105  RH  068%=      5-min Rain = 0
KPD1 121329Z 19002KT 17/11 A301 RMK A01 T01650106  RH  068%=      5-min Rain = 0
KPD1 121330Z 19001KT 17/11 A301 RMK A01 T01660105  RH  067%=      5-min Rain = 0
KPD1 121331Z 19002KT 17/11 A301 RMK A01 T01670107  RH  068%=      5-min Rain = 0
KPD1 121332Z 19002KT 17/11 A301 RMK A01 T01670107  RH  068%=      5-min Rain = 0
KPD1 121333Z 19002KT 17/11 A301 RMK A01 T01680107  RH  067%=      5-min Rain = 0
KPD1 121334Z 19003KT 17/11 A301 RMK A01 T01680107  RH  067%=      5-min Rain = 0
KPD1 121335Z 20002KT 17/11 A301 RMK A01 T01690106  RH  066%=      5-min Rain = 0
KPD1 121336Z 18002KT 17/11 A301 RMK A01 T01690106  RH  066%=      5-min Rain = 0
KPD1 121337Z 17002KT 17/11 A301 RMK A01 T01700107  RH  066%=      5-min Rain = 0
KPD1 121338Z 17002KT 17/11 A301 RMK A01 T01710108  RH  066%=      5-min Rain = 0
KPD1 121339Z 17002KT 17/11 A301 RMK A01 T01730107  RH  065%=      5-min Rain = 0
KPD1 121340Z 18002KT 17/11 A301 RMK A01 T01740108  RH  065%=      5-min Rain = 0
KPD1 121341Z 18002KT 18/11 A301 RMK A01 T01750107  RH  064%=      5-min Rain = 0
KPD1 121342Z 18001KT 18/11 A301 RMK A01 T01760107  RH  064%=      5-min Rain = 0
KPD1 121343Z 18002KT 18/11 A301 RMK A01 T01760106  RH  064%=      5-min Rain = 0
KPD1 121344Z 17002KT 18/10 A301 RMK A01 T01760104  RH  063%=      5-min Rain = 0
KPD1 121345Z 16002KT 18/10 A301 RMK A01 T01770104  RH  063%=      5-min Rain = 0
KPD1 121346Z 17003KT 18/11 A301 RMK A01 T01770105  RH  062%=      5-min Rain = 0
KPD1 121347Z 16003KT 18/10 A301 RMK A01 T01780104  RH  062%=      5-min Rain = 0
KPD1 121348Z 17003KT 18/10 A301 RMK A01 T01780104  RH  062%=      5-min Rain = 0
KPD1 121349Z 17003KT 18/10 A301 RMK A01 T01780104  RH  062%=      5-min Rain = 0
KPD1 121350Z 18004KT 18/11 A301 RMK A01 T01780105  RH  062%=      5-min Rain = 0
KPD1 121351Z 18004KT 18/11 A301 RMK A01 T01780105  RH  062%=      5-min Rain = 0
KPD1 121352Z 19004KT 18/11 A301 RMK A01 T01790105  RH  062%=      5-min Rain = 0
KPD1 121353Z 18003KT 18/11 A301 RMK A01 T01790106  RH  062%=      5-min Rain = 0
KPD1 121354Z 19005KT 18/11 A301 RMK A01 T01800106  RH  062%=      5-min Rain = 0
KPD1 121355Z 18003KT 18/11 A301 RMK A01 T01800105  RH  062%=      5-min Rain = 0
KPD1 121356Z 18003KT 18/11 A301 RMK A01 T01810106  RH  062%=      5-min Rain = 0
KPD1 121357Z 18003KT 18/11 A301 RMK A01 T01810105  RH  061%=      5-min Rain = 0
KPD1 121358Z 17003KT 18/11 A301 RMK A01 T01820105  RH  061%=      5-min Rain = 0
KPD1 121359Z 17003KT 18/11 A301 RMK A01 T01820105  RH  061%=      5-min Rain = 0
KPD1 121400Z 18003KT 18/10 A301 RMK A01 T01820104  RH  060%=      5-min Rain = 0
KPD1 121401Z 19003KT 18/11 A301 RMK A01 T01820105  RH  061%=      5-min Rain = 0
KPD1 121402Z 19002KT 18/10 A301 RMK A01 T01830104  RH  060%=      5-min Rain = 0
KPD1 121403Z 18003KT 18/11 A301 RMK A01 T01840106  RH  061%=      5-min Rain = 0
KPD1 121404Z 18003KT 18/11 A301 RMK A01 T01840107  RH  061%=      5-min Rain = 0
KPD1 121405Z 17003KT 19/11 A301 RMK A01 T01850106  RH  060%=      5-min Rain = 0
KPD1 121406Z 18003KT 19/11 A301 RMK A01 T01860106  RH  060%=      5-min Rain = 0
KPD1 121407Z 18004KT 19/11 A301 RMK A01 T01870107  RH  060%=      5-min Rain = 0
KPD1 121408Z 17003KT 19/11 A301 RMK A01 T01870105  RH  059%=      5-min Rain = 0
KPD1 121409Z 19002KT 19/11 A301 RMK A01 T01880107  RH  059%=      5-min Rain = 0
KPD1 121410Z 18003KT 19/11 A301 RMK A01 T01890107  RH  059%=      5-min Rain = 0
KPD1 121411Z 18003KT 19/10 A301 RMK A01 T01890104  RH  058%=      5-min Rain = 0
KPD1 121412Z 17003KT 19/10 A301 RMK A01 T01890104  RH  058%=      5-min Rain = 0
KPD1 121413Z 17003KT 19/11 A301 RMK A01 T01900105  RH  058%=      5-min Rain = 0
KPD1 121414Z 17003KT 19/11 A301 RMK A01 T01900106  RH  058%=      5-min Rain = 0
KPD1 121415Z 18003KT 19/11 A301 RMK A01 T01910106  RH  058%=      5-min Rain = 0
KPD1 121416Z 18002KT 19/11 A301 RMK A01 T01920108  RH  058%=      5-min Rain = 0
KPD1 121417Z 17002KT 19/11 A301 RMK A01 T01920106  RH  057%=      5-min Rain = 0
KPD1 121418Z 17002KT 19/11 A301 RMK A01 T01920107  RH  058%=      5-min Rain = 0
KPD1 121419Z 15002KT 19/11 A301 RMK A01 T01930105  RH  057%=      5-min Rain = 0
KPD1 121420Z 17002KT 19/11 A301 RMK A01 T01940108  RH  058%=      5-min Rain = 0
KPD1 121421Z 17002KT 19/11 A301 RMK A01 T01940108  RH  057%=      5-min Rain = 0
KPD1 121422Z 16002KT 19/11 A301 RMK A01 T01940108  RH  057%=      5-min Rain = 0
KPD1 121423Z 17002KT 20/11 A301 RMK A01 T01950110  RH  058%=      5-min Rain = 0
KPD1 121424Z 18002KT 20/11 A301 RMK A01 T01960110  RH  057%=      5-min Rain = 0
KPD1 121425Z 16002KT 20/11 A301 RMK A01 T01970109  RH  057%=      5-min Rain = 0
KPD1 121426Z 17002KT 20/11 A301 RMK A01 T01970110  RH  057%=      5-min Rain = 0
KPD1 121427Z 17002KT 20/11 A301 RMK A01 T01980112  RH  057%=      5-min Rain = 0
KPD1 121428Z 16002KT 20/11 A301 RMK A01 T01990111  RH  057%=      5-min Rain = 0
KPD1 121429Z 19002KT 20/11 A301 RMK A01 T01990112  RH  057%=      5-min Rain = 0
KPD1 121430Z 18001KT 20/11 A301 RMK A01 T02000112  RH  057%=      5-min Rain = 0
KPD1 121431Z 16001KT 20/11 A301 RMK A01 T02000112  RH  057%=      5-min Rain = 0
KPD1 121432Z 16002KT 20/11 A301 RMK A01 T02010112  RH  057%=      5-min Rain = 0
KPD1 121433Z 16002KT 20/11 A301 RMK A01 T02010112  RH  056%=      5-min Rain = 0
KPD1 121434Z 17002KT 20/11 A301 RMK A01 T02010112  RH  056%=      5-min Rain = 0
KPD1 121435Z 20002KT 20/11 A301 RMK A01 T02010112  RH  056%=      5-min Rain = 0
KPD1 121436Z 17002KT 20/11 A301 RMK A01 T02020114  RH  057%=      5-min Rain = 0
KPD1 121437Z 16002KT 20/11 A301 RMK A01 T02020113  RH  056%=      5-min Rain = 0
KPD1 121438Z 17002KT 20/11 A301 RMK A01 T02030113  RH  056%=      5-min Rain = 0
KPD1 121439Z 16001KT 20/11 A301 RMK A01 T02040112  RH  056%=      5-min Rain = 0
KPD1 121440Z 17001KT 20/11 A301 RMK A01 T02040112  RH  056%=      5-min Rain = 0
KPD1 121441Z 18002KT 21/11 A301 RMK A01 T02050114  RH  056%=      5-min Rain = 0
KPD1 121442Z 17002KT 21/11 A301 RMK A01 T02060114  RH  055%=      5-min Rain = 0
KPD1 121443Z 19002KT 21/11 A301 RMK A01 T02070113  RH  055%=      5-min Rain = 0
KPD1 121444Z 15002KT 21/11 A301 RMK A01 T02070114  RH  055%=      5-min Rain = 0
KPD1 121445Z 17002KT 21/12 A301 RMK A01 T02070115  RH  055%=      5-min Rain = 0
KPD1 121446Z 19001KT 21/12 A301 RMK A01 T02080115  RH  055%=      5-min Rain = 0
KPD1 121447Z 15002KT 21/11 A301 RMK A01 T02090113  RH  054%=      5-min Rain = 0
KPD1 121448Z 17002KT 21/12 A301 RMK A01 T02090115  RH  055%=      5-min Rain = 0
KPD1 121449Z 17002KT 21/12 A301 RMK A01 T02100116  RH  055%=      5-min Rain = 0
KPD1 121450Z 16001KT 21/12 A301 RMK A01 T02110115  RH  054%=      5-min Rain = 0
KPD1 121451Z 17002KT 21/12 A301 RMK A01 T02110116  RH  055%=      5-min Rain = 0
KPD1 121452Z 17001KT 21/11 A301 RMK A01 T02120114  RH  054%=      5-min Rain = 0
KPD1 121453Z 15001KT 21/11 A301 RMK A01 T02110113  RH  054%=      5-min Rain = 0
KPD1 121454Z 17003KT 21/12 A301 RMK A01 T02110116  RH  054%=      5-min Rain = 0
KPD1 121455Z 17002KT 21/12 A301 RMK A01 T02120115  RH  054%=      5-min Rain = 0
KPD1 121456Z 17001KT 21/12 A301 RMK A01 T02120115  RH  054%=      5-min Rain = 0
KPD1 121457Z 16003KT 21/12 A301 RMK A01 T02140119  RH  055%=      5-min Rain = 0
KPD1 121458Z 16003KT 22/12 A301 RMK A01 T02150117  RH  054%=      5-min Rain = 0
KPD1 121459Z 17001KT 22/12 A301 RMK A01 T02150115  RH  053%=      5-min Rain = 0
KPD1 121500Z 16002KT 21/12 A301 RMK A01 T02140116  RH  054%=      5-min Rain = 0
KPD1 121501Z 17003KT 21/12 A301 RMK A01 T02140118  RH  054%=      5-min Rain = 0
KPD1 121502Z 16002KT 22/12 A301 RMK A01 T02150118  RH  054%=      5-min Rain = 0
KPD1 121503Z 16002KT 22/12 A301 RMK A01 T02160117  RH  054%=      5-min Rain = 0
KPD1 121504Z 17002KT 22/12 A301 RMK A01 T02160117  RH  053%=      5-min Rain = 0
KPD1 121505Z 18003KT 22/12 A301 RMK A01 T02160118  RH  054%=      5-min Rain = 0
KPD1 121506Z 18003KT 22/12 A301 RMK A01 T02160118  RH  054%=      5-min Rain = 0
KPD1 121507Z 19002KT 22/12 A301 RMK A01 T02160119  RH  054%=      5-min Rain = 0
KPD1 121508Z 17003KT 22/12 A301 RMK A01 T02170120  RH  054%=      5-min Rain = 0
KPD1 121509Z 18003KT 22/12 A301 RMK A01 T02170118  RH  053%=      5-min Rain = 0
KPD1 121510Z 18003KT 22/12 A301 RMK A01 T02180119  RH  053%=      5-min Rain = 0
KPD1 121511Z 19003KT 22/12 A301 RMK A01 T02180120  RH  054%=      5-min Rain = 0
KPD1 121512Z 18002KT 22/12 A301 RMK A01 T02190121  RH  054%=      5-min Rain = 0
KPD1 121513Z 19001KT 22/12 A301 RMK A01 T02200119  RH  053%=      5-min Rain = 0
KPD1 121514Z 20002KT 22/12 A301 RMK A01 T02200120  RH  053%=      5-min Rain = 0
KPD1 121515Z 14002KT 22/12 A301 RMK A01 T02200121  RH  053%=      5-min Rain = 0
KPD1 121516Z 11002KT 22/12 A301 RMK A01 T02220120  RH  052%=      5-min Rain = 0
KPD1 121517Z 13001KT 22/12 A301 RMK A01 T02230120  RH  052%=      5-min Rain = 0
KPD1 121518Z 17002KT 23/12 A301 RMK A01 T02250121  RH  052%=      5-min Rain = 0
KPD1 121519Z 17002KT 23/12 A301 RMK A01 T02250120  RH  052%=      5-min Rain = 0
KPD1 121520Z 15000KT 22/12 A301 RMK A01 T02240120  RH  052%=      5-min Rain = 0
KPD1 121521Z 18000KT 22/12 A301 RMK A01 T02230121  RH  052%=      5-min Rain = 0
KPD1 121522Z 20002KT 22/12 A301 RMK A01 T02240123  RH  053%=      5-min Rain = 0
KPD1 121523Z 19003KT 23/12 A301 RMK A01 T02260122  RH  052%=      5-min Rain = 0
KPD1 121524Z 18002KT 23/12 A301 RMK A01 T02260122  RH  052%=      5-min Rain = 0
KPD1 121525Z 20002KT 23/12 A301 RMK A01 T02270123  RH  052%=      5-min Rain = 0
KPD1 121526Z 13000KT 23/12 A301 RMK A01 T02270122  RH  051%=      5-min Rain = 0
KPD1 121527Z 20001KT 23/12 A301 RMK A01 T02280124  RH  052%=      5-min Rain = 0
KPD1 121528Z 17002KT 23/12 A301 RMK A01 T02290123  RH  051%=      5-min Rain = 0
KPD1 121529Z 21001KT 23/13 A301 RMK A01 T02300126  RH  052%=      5-min Rain = 0
KPD1 121530Z 20002KT 23/13 A301 RMK A01 T02330128  RH  052%=      5-min Rain = 0
KPD1 121531Z 19003KT 23/13 A301 RMK A01 T02340125  RH  050%=      5-min Rain = 0
KPD1 121532Z 19002KT 23/12 A301 RMK A01 T02340124  RH  050%=      5-min Rain = 0
KPD1 121533Z 19002KT 23/12 A301 RMK A01 T02340122  RH  049%=      5-min Rain = 0
KPD1 121534Z 15002KT 23/12 A301 RMK A01 T02320123  RH  050%=      5-min Rain = 0
KPD1 121535Z 15003KT 23/12 A301 RMK A01 T02320123  RH  050%=      5-min Rain = 0
KPD1 121536Z 15002KT 23/12 A301 RMK A01 T02340124  RH  050%=      5-min Rain = 0
KPD1 121537Z 16001KT 24/13 A301 RMK A01 T02350125  RH  050%=      5-min Rain = 0
KPD1 121538Z 17003KT 24/12 A301 RMK A01 T02370124  RH  049%=      5-min Rain = 0
KPD1 121539Z 17003KT 24/12 A301 RMK A01 T02370122  RH  048%=      5-min Rain = 0
KPD1 121540Z 18001KT 24/12 A301 RMK A01 T02350122  RH  049%=      5-min Rain = 0
KPD1 121541Z 17000KT 24/12 A301 RMK A01 T02360124  RH  049%=      5-min Rain = 0
KPD1 121542Z 12003KT 24/12 A301 RMK A01 T02370122  RH  049%=      5-min Rain = 0
KPD1 121543Z 13003KT 24/13 A301 RMK A01 T02370126  RH  050%=      5-min Rain = 0
KPD1 121544Z 15002KT 24/13 A301 RMK A01 T02400127  RH  049%=      5-min Rain = 0
KPD1 121545Z 16003KT 24/13 A301 RMK A01 T02440126  RH  048%=      5-min Rain = 0
KPD1 121546Z 16002KT 25/12 A301 RMK A01 T02460124  RH  047%=      5-min Rain = 0
KPD1 121547Z 16000KT 25/13 A301 RMK A01 T02460126  RH  047%=      5-min Rain = 0
KPD1 121548Z 13002KT 25/13 A301 RMK A01 T02470126  RH  047%=      5-min Rain = 0
KPD1 121549Z 14002KT 25/12 A301 RMK A01 T02470123  RH  046%=      5-min Rain = 0
KPD1 121550Z 15002KT 25/12 A301 RMK A01 T02470124  RH  046%=      5-min Rain = 0
KPD1 121551Z 14002KT 25/12 A301 RMK A01 T02460123  RH  046%=      5-min Rain = 0
KPD1 121552Z 15002KT 25/12 A301 RMK A01 T02460124  RH  046%=      5-min Rain = 0
KPD1 121553Z 00000KT 25/12 A301 RMK A01 T02460122  RH  046%=      5-min Rain = 0
KPD1 121554Z 06000KT 25/12 A301 RMK A01 T02460123  RH  046%=      5-min Rain = 0
KPD1 121555Z 11001KT 25/13 A301 RMK A01 T02470125  RH  047%=      5-min Rain = 0
KPD1 121556Z 09002KT 25/13 A301 RMK A01 T02490125  RH  046%=      5-min Rain = 0
KPD1 121557Z 09001KT 25/13 A301 RMK A01 T02500126  RH  046%=      5-min Rain = 0
KPD1 121558Z 14001KT 25/13 A301 RMK A01 T02530130  RH  047%=      5-min Rain = 0
KPD1 121559Z 18001KT 26/13 A301 RMK A01 T02550128  RH  045%=      5-min Rain = 0
KPD1 121600Z 19002KT 26/13 A301 RMK A01 T02550126  RH  045%=      5-min Rain = 0
KPD1 121601Z 19002KT 26/12 A301 RMK A01 T02550124  RH  044%=      5-min Rain = 0
KPD1 121602Z 18002KT 26/13 A301 RMK A01 T02560129  RH  045%=      5-min Rain = 0
KPD1 121603Z 19002KT 26/12 A301 RMK A01 T02560124  RH  044%=      5-min Rain = 0
KPD1 121604Z 20001KT 26/12 A301 RMK A01 T02560124  RH  044%=      5-min Rain = 0
KPD1 121605Z 18000KT 26/12 A301 RMK A01 T02550124  RH  044%=      5-min Rain = 0
KPD1 121606Z 18001KT 26/13 A301 RMK A01 T02550126  RH  044%=      5-min Rain = 0
KPD1 121607Z 17003KT 26/13 A301 RMK A01 T02570127  RH  045%=      5-min Rain = 0
KPD1 121608Z 17001KT 26/13 A301 RMK A01 T02570125  RH  044%=      5-min Rain = 0
KPD1 121609Z 18001KT 26/13 A301 RMK A01 T02570125  RH  044%=      5-min Rain = 0
KPD1 121610Z 14001KT 26/13 A301 RMK A01 T02570125  RH  044%=      5-min Rain = 0
KPD1 121611Z 17003KT 26/13 A301 RMK A01 T02570126  RH  044%=      5-min Rain = 0
KPD1 121612Z 19003KT 26/13 A301 RMK A01 T02590126  RH  044%=      5-min Rain = 0
KPD1 121613Z 19001KT 26/13 A301 RMK A01 T02590128  RH  044%=      5-min Rain = 0
KPD1 121614Z 20001KT 26/13 A301 RMK A01 T02600129  RH  044%=      5-min Rain = 0
KPD1 121615Z 12001KT 26/13 A301 RMK A01 T02610127  RH  043%=      5-min Rain = 0
KPD1 121616Z 11003KT 26/13 A301 RMK A01 T02620125  RH  043%=      5-min Rain = 0
KPD1 121617Z 13004KT 26/13 A301 RMK A01 T02620125  RH  043%=      5-min Rain = 0
KPD1 121618Z 11004KT 26/13 A301 RMK A01 T02620126  RH  043%=      5-min Rain = 0
KPD1 121619Z 12003KT 26/13 A301 RMK A01 T02610127  RH  043%=      5-min Rain = 0
KPD1 121620Z 12003KT 26/13 A301 RMK A01 T02620131  RH  044%=      5-min Rain = 0
KPD1 121621Z 16001KT 26/12 A301 RMK A01 T02630124  RH  042%=      5-min Rain = 0
KPD1 121622Z 20002KT 26/13 A301 RMK A01 T02630128  RH  043%=      5-min Rain = 0
KPD1 121623Z 18001KT 26/13 A301 RMK A01 T02640128  RH  043%=      5-min Rain = 0
KPD1 121624Z 16001KT 27/13 A301 RMK A01 T02660130  RH  043%=      5-min Rain = 0
KPD1 121625Z 17001KT 27/13 A301 RMK A01 T02680125  RH  041%=      5-min Rain = 0
KPD1 121626Z 17002KT 27/13 A301 RMK A01 T02680128  RH  042%=      5-min Rain = 0
KPD1 121627Z 15000KT 27/13 A301 RMK A01 T02700127  RH  041%=      5-min Rain = 0
KPD1 121628Z 21002KT 27/13 A301 RMK A01 T02700129  RH  041%=      5-min Rain = 0
KPD1 121629Z 22003KT 27/13 A301 RMK A01 T02710125  RH  040%=      5-min Rain = 0
KPD1 121630Z 21003KT 27/13 A301 RMK A01 T02710126  RH  041%=      5-min Rain = 0
KPD1 121631Z 21002KT 27/13 A3009 RMK A01 T02700126  RH  041%=      5-min Rain = 0
KPD1 121632Z 22000KT 27/13 A3009 RMK A01 T02710125  RH  041%=      5-min Rain = 0
KPD1 121633Z 07000KT 27/12 A3009 RMK A01 T02710122  RH  039%=      5-min Rain = 0
KPD1 121634Z 21002KT 27/12 A3009 RMK A01 T02710123  RH  040%=      5-min Rain = 0
KPD1 121635Z 21003KT 27/12 A3009 RMK A01 T02710124  RH  040%=      5-min Rain = 0
KPD1 121636Z 19002KT 27/12 A3009 RMK A01 T02710124  RH  040%=      5-min Rain = 0
KPD1 121637Z 16001KT 27/12 A3009 RMK A01 T02710124  RH  040%=      5-min Rain = 0
KPD1 121638Z 22001KT 27/13 A3009 RMK A01 T02710127  RH  041%=      5-min Rain = 0
KPD1 121639Z 19003KT 27/13 A3009 RMK A01 T02720126  RH  040%=      5-min Rain = 0
KPD1 121640Z 19003KT 27/13 A3009 RMK A01 T02720125  RH  040%=      5-min Rain = 0
KPD1 121641Z 19001KT 27/12 A3009 RMK A01 T02720121  RH  039%=      5-min Rain = 0
KPD1 121642Z 21001KT 27/12 A3009 RMK A01 T02720122  RH  039%=      5-min Rain = 0
KPD1 121643Z 23004KT 27/12 A3009 RMK A01 T02710122  RH  040%=      5-min Rain = 0
KPD1 121644Z 24002KT 27/12 A3009 RMK A01 T02700121  RH  040%=      5-min Rain = 0
KPD1 121645Z 25001KT 27/12 A3009 RMK A01 T02690122  RH  040%=      5-min Rain = 0
KPD1 121646Z 27000KT 27/12 A3009 RMK A01 T02700117  RH  039%=      5-min Rain = 0
KPD1 121647Z 22000KT 27/12 A3009 RMK A01 T02690118  RH  039%=      5-min Rain = 0
KPD1 121648Z 19001KT 27/12 A3009 RMK A01 T02680121  RH  040%=      5-min Rain = 0
KPD1 121649Z 17001KT 27/12 A3009 RMK A01 T02690122  RH  040%=      5-min Rain = 0
KPD1 121650Z 09001KT 27/12 A3009 RMK A01 T02720120  RH  039%=      5-min Rain = 0
KPD1 121651Z 11003KT 27/12 A3009 RMK A01 T02740123  RH  039%=      5-min Rain = 0
KPD1 121652Z 10003KT 27/13 A3009 RMK A01 T02740125  RH  040%=      5-min Rain = 0
KPD1 121653Z 17003KT 28/12 A3009 RMK A01 T02770124  RH  039%=      5-min Rain = 0
KPD1 121654Z 17002KT 28/12 A3009 RMK A01 T02780121  RH  038%=      5-min Rain = 0
KPD1 121655Z 17000KT 28/12 A3009 RMK A01 T02780121  RH  038%=      5-min Rain = 0
KPD1 121656Z 00000KT 28/12 A3009 RMK A01 T02770123  RH  039%=      5-min Rain = 0
KPD1 121657Z 14000KT 28/13 A3009 RMK A01 T02770125  RH  039%=      5-min Rain = 0
KPD1 121658Z 17002KT 28/13 A3009 RMK A01 T02790127  RH  039%=      5-min Rain = 0
KPD1 121659Z 18003KT 28/12 A3009 RMK A01 T02810123  RH  037%=      5-min Rain = 0
KPD1 121700Z 20002KT 28/12 A3009 RMK A01 T02820121  RH  037%=      5-min Rain = 0
KPD1 121701Z 19002KT 28/12 A3009 RMK A01 T02820117  RH  036%=      5-min Rain = 0
KPD1 121702Z 19004KT 28/12 A3009 RMK A01 T02830119  RH  036%=      5-min Rain = 0
KPD1 121703Z 24004KT 29/12 A3009 RMK A01 T02850121  RH  036%=      5-min Rain = 0
KPD1 121704Z 24002KT 29/12 A3009 RMK A01 T02860119  RH  036%=      5-min Rain = 0
KPD1 121705Z 20003KT 29/12 A3008 RMK A01 T02860122  RH  036%=      5-min Rain = 0
KPD1 121706Z 15003KT 29/12 A3008 RMK A01 T02870122  RH  036%=      5-min Rain = 0
KPD1 121707Z 14004KT 29/12 A3008 RMK A01 T02900123  RH  036%=      5-min Rain = 0
KPD1 121708Z 11003KT 29/12 A3008 RMK A01 T02910122  RH  035%=      5-min Rain = 0
KPD1 121709Z 08002KT 29/13 A3008 RMK A01 T02910127  RH  036%=      5-min Rain = 0
KPD1 121710Z 07002KT 29/12 A3008 RMK A01 T02920124  RH  036%=      5-min Rain = 0
KPD1 121711Z 01004KT 29/13 A3008 RMK A01 T02910126  RH  036%=      5-min Rain = 0
KPD1 121712Z 33004KT 29/13 A3008 RMK A01 T02890126  RH  037%=      5-min Rain = 0
KPD1 121713Z 32005KT 29/13 A3008 RMK A01 T02860126  RH  037%=      5-min Rain = 0
KPD1 121714Z 30003KT 28/13 A3008 RMK A01 T02840125  RH  037%=      5-min Rain = 0
KPD1 121715Z 28001KT 28/12 A3008 RMK A01 T02830122  RH  037%=      5-min Rain = 0
KPD1 121716Z 33002KT 28/12 A3008 RMK A01 T02820122  RH  037%=      5-min Rain = 0
KPD1 121717Z 35003KT 28/13 A3008 RMK A01 T02820127  RH  038%=      5-min Rain = 0
KPD1 121718Z 04002KT 28/13 A3008 RMK A01 T02840125  RH  038%=      5-min Rain = 0
KPD1 121719Z 07001KT 28/12 A3008 RMK A01 T02840121  RH  037%=      5-min Rain = 0
KPD1 121720Z 06002KT 28/12 A3008 RMK A01 T02840124  RH  037%=      5-min Rain = 0
KPD1 121721Z 05001KT 28/12 A3008 RMK A01 T02830124  RH  037%=      5-min Rain = 0
KPD1 121722Z 07001KT 28/13 A3008 RMK A01 T02840126  RH  038%=      5-min Rain = 0
KPD1 121723Z 00000KT 29/13 A3008 RMK A01 T02850125  RH  037%=      5-min Rain = 0
KPD1 121724Z 16001KT 29/12 A3008 RMK A01 T02860124  RH  037%=      5-min Rain = 0
KPD1 121725Z 11001KT 29/12 A3008 RMK A01 T02870122  RH  036%=      5-min Rain = 0
KPD1 121726Z 14000KT 29/12 A3008 RMK A01 T02880120  RH  035%=      5-min Rain = 0
KPD1 121727Z 09001KT 29/13 A3008 RMK A01 T02890125  RH  036%=      5-min Rain = 0
KPD1 121728Z 12001KT 29/13 A3008 RMK A01 T02910125  RH  036%=      5-min Rain = 0
KPD1 121729Z 10001KT 29/13 A3008 RMK A01 T02930125  RH  035%=      5-min Rain = 0
KPD1 121730Z 08003KT 30/13 A3008 RMK A01 T02960128  RH  036%=      5-min Rain = 0
KPD1 121731Z 33005KT 30/12 A3007 RMK A01 T02960123  RH  034%=      5-min Rain = 0
KPD1 121732Z 23006KT 30/13 A3007 RMK A01 T02960128  RH  036%=      5-min Rain = 0
KPD1 121733Z 27007KT 30/12 A3007 RMK A01 T02970123  RH  034%=      5-min Rain = 0
KPD1 121734Z 26003KT 30/12 A3007 RMK A01 T02950124  RH  035%=      5-min Rain = 0
KPD1 121735Z 24001KT 30/13 A3007 RMK A01 T02950126  RH  035%=      5-min Rain = 0
KPD1 121736Z 19005KT 30/12 A3007 RMK A01 T02970124  RH  035%=      5-min Rain = 0
KPD1 121737Z 17003KT 30/12 A3007 RMK A01 T02970117  RH  033%=      5-min Rain = 0
KPD1 121738Z 18001KT 30/12 A3007 RMK A01 T02950118  RH  033%=      5-min Rain = 0
KPD1 121739Z 23000KT 29/12 A3007 RMK A01 T02940119  RH  034%=      5-min Rain = 0
KPD1 121740Z 19000KT 29/12 A3007 RMK A01 T02940120  RH  034%=      5-min Rain = 0
KPD1 121741Z 09001KT 29/12 A3007 RMK A01 T02940120  RH  034%=      5-min Rain = 0
KPD1 121742Z 03002KT 30/12 A3007 RMK A01 T02960120  RH  034%=      5-min Rain = 0
KPD1 121743Z 34001KT 30/12 A3007 RMK A01 T02960119  RH  034%=      5-min Rain = 0
KPD1 121744Z 15002KT 30/11 A3007 RMK A01 T02960114  RH  032%=      5-min Rain = 0
KPD1 121745Z 16002KT 30/11 A3007 RMK A01 T02970113  RH  032%=      5-min Rain = 0
KPD1 121746Z 12002KT 30/11 A3007 RMK A01 T02960113  RH  032%=      5-min Rain = 0
KPD1 121747Z 12004KT 30/12 A3007 RMK A01 T02970115  RH  033%=      5-min Rain = 0
KPD1 121748Z 12003KT 30/12 A3007 RMK A01 T02990120  RH  033%=      5-min Rain = 0
KPD1 121749Z 12003KT 30/12 A3007 RMK A01 T03020117  RH  032%=      5-min Rain = 0
KPD1 121750Z 13004KT 30/11 A3007 RMK A01 T03030113  RH  031%=      5-min Rain = 0
KPD1 121751Z 15003KT 30/11 A3007 RMK A01 T03020112  RH  031%=      5-min Rain = 0
KPD1 121752Z 15002KT 30/11 A3007 RMK A01 T03000114  RH  032%=      5-min Rain = 0
KPD1 121753Z 13002KT 30/11 A3007 RMK A01 T02990110  RH  031%=      5-min Rain = 0
KPD1 121754Z 12002KT 30/11 A3007 RMK A01 T02990111  RH  031%=      5-min Rain = 0
KPD1 121755Z 16003KT 30/11 A3007 RMK A01 T03000111  RH  031%=      5-min Rain = 0
KPD1 121756Z 19002KT 30/11 A3007 RMK A01 T03010110  RH  031%=      5-min Rain = 0
KPD1 121757Z 17001KT 30/11 A3007 RMK A01 T03020111  RH  031%=      5-min Rain = 0
KPD1 121758Z 10003KT 30/12 A3007 RMK A01 T03030118  RH  032%=      5-min Rain = 0
KPD1 121759Z 07003KT 31/12 A3007 RMK A01 T03050117  RH  032%=      5-min Rain = 0
KPD1 121800Z 07003KT 31/12 A3006 RMK A01 T03050119  RH  032%=      5-min Rain = 0
KPD1 121801Z 02003KT 30/12 A3006 RMK A01 T03040115  RH  031%=      5-min Rain = 0
KPD1 121802Z 16004KT 30/11 A3006 RMK A01 T03030112  RH  031%=      5-min Rain = 0
KPD1 121803Z 15004KT 30/11 A3006 RMK A01 T03020110  RH  030%=      5-min Rain = 0
KPD1 121804Z 17003KT 30/11 A3006 RMK A01 T03040108  RH  030%=      5-min Rain = 0
KPD1 121805Z 13002KT 31/11 A3006 RMK A01 T03050107  RH  029%=      5-min Rain = 0
KPD1 121806Z 10004KT 31/11 A3006 RMK A01 T03050105  RH  029%=      5-min Rain = 0
KPD1 121807Z 10003KT 31/11 A3006 RMK A01 T03050107  RH  029%=      5-min Rain = 0
KPD1 121808Z 13000KT 31/11 A3006 RMK A01 T03060106  RH  029%=      5-min Rain = 0
KPD1 121809Z 17003KT 31/11 A3006 RMK A01 T03080107  RH  029%=      5-min Rain = 0
KPD1 121810Z 18004KT 31/11 A3006 RMK A01 T03090105  RH  028%=      5-min Rain = 0
KPD1 121811Z 16003KT 31/10 A3006 RMK A01 T03100103  RH  028%=      5-min Rain = 0
KPD1 121812Z 22001KT 31/10 A3006 RMK A01 T03090102  RH  028%=      5-min Rain = 0
KPD1 121813Z 11004KT 31/10 A3006 RMK A01 T03070102  RH  028%=      5-min Rain = 0
KPD1 121814Z 09004KT 31/10 A3006 RMK A01 T03080102  RH  028%=      5-min Rain = 0
KPD1 121815Z 09003KT 31/11 A3006 RMK A01 T03090107  RH  029%=      5-min Rain = 0
KPD1 121816Z 19001KT 31/11 A3006 RMK A01 T03110105  RH  028%=      5-min Rain = 0
KPD1 121817Z 17002KT 31/11 A3006 RMK A01 T03130108  RH  028%=      5-min Rain = 0
KPD1 121818Z 13004KT 31/10 A3006 RMK A01 T03130103  RH  027%=      5-min Rain = 0
KPD1 121819Z 11004KT 31/11 A3006 RMK A01 T03130105  RH  028%=      5-min Rain = 0
KPD1 121820Z 09002KT 31/10 A3006 RMK A01 T03120102  RH  027%=      5-min Rain = 0
KPD1 121821Z 09003KT 31/11 A3006 RMK A01 T03110106  RH  028%=      5-min Rain = 0
KPD1 121822Z 08002KT 31/10 A3005 RMK A01 T03120103  RH  027%=      5-min Rain = 0
KPD1 121823Z 06002KT 31/11 A3005 RMK A01 T03110106  RH  028%=      5-min Rain = 0
KPD1 121824Z 13002KT 31/10 A3005 RMK A01 T03110101  RH  027%=      5-min Rain = 0
KPD1 121825Z 16002KT 31/10 A3005 RMK A01 T03110098  RH  027%=      5-min Rain = 0
KPD1 121826Z 18004KT 31/10 A3005 RMK A01 T03130100  RH  027%=      5-min Rain = 0
KPD1 121827Z 19003KT 31/10 A3005 RMK A01 T03140100  RH  027%=      5-min Rain = 0
KPD1 121828Z 15002KT 31/10 A3005 RMK A01 T03140099  RH  026%=      5-min Rain = 0
KPD1 121829Z 14003KT 32/10 A3005 RMK A01 T03150096  RH  026%=      5-min Rain = 0
KPD1 121830Z 09001KT 32/10 A3005 RMK A01 T03160095  RH  026%=      5-min Rain = 0
KPD1 121831Z 10000KT 32/09 A3005 RMK A01 T03150093  RH  025%=      5-min Rain = 0
KPD1 121832Z 16004KT 32/09 A3005 RMK A01 T03150092  RH  025%=      5-min Rain = 0
KPD1 121833Z 13003KT 32/09 A3005 RMK A01 T03150094  RH  026%=      5-min Rain = 0
KPD1 121834Z 05002KT 32/09 A3005 RMK A01 T03150091  RH  025%=      5-min Rain = 0
KPD1 121835Z 13001KT 31/10 A3005 RMK A01 T03140100  RH  027%=      5-min Rain = 0
KPD1 121836Z 18001KT 32/10 A3005 RMK A01 T03160097  RH  026%=      5-min Rain = 0
KPD1 121837Z 18002KT 32/10 A3005 RMK A01 T03180100  RH  026%=      5-min Rain = 0
KPD1 121838Z 15002KT 32/10 A3005 RMK A01 T03200095  RH  025%=      5-min Rain = 0
KPD1 121839Z 13002KT 32/10 A3005 RMK A01 T03200097  RH  025%=      5-min Rain = 0
KPD1 121840Z 10002KT 32/10 A3005 RMK A01 T03190095  RH  025%=      5-min Rain = 0
KPD1 121841Z 16001KT 32/10 A3004 RMK A01 T03180099  RH  026%=      5-min Rain = 0
KPD1 121842Z 14003KT 32/10 A3004 RMK A01 T03190102  RH  026%=      5-min Rain = 0
KPD1 121843Z 15005KT 32/10 A3004 RMK A01 T03210102  RH  026%=      5-min Rain = 0
KPD1 121844Z 16004KT 32/10 A3004 RMK A01 T03210099  RH  026%=      5-min Rain = 0
KPD1 121845Z 16003KT 32/10 A3004 RMK A01 T03200104  RH  026%=      5-min Rain = 0
KPD1 121846Z 17005KT 32/10 A3004 RMK A01 T03210101  RH  026%=      5-min Rain = 0
KPD1 121847Z 19003KT 32/10 A3004 RMK A01 T03210101  RH  026%=      5-min Rain = 0
KPD1 121848Z 17004KT 32/10 A3004 RMK A01 T03190098  RH  025%=      5-min Rain = 0
KPD1 121849Z 17005KT 32/10 A3004 RMK A01 T03180098  RH  026%=      5-min Rain = 0
KPD1 121850Z 17003KT 32/10 A3004 RMK A01 T03180095  RH  025%=      5-min Rain = 0
KPD1 121851Z 18002KT 32/09 A3004 RMK A01 T03170093  RH  025%=      5-min Rain = 0
KPD1 121852Z 15001KT 32/09 A3004 RMK A01 T03170089  RH  024%=      5-min Rain = 0
KPD1 121853Z 14000KT 31/09 A3004 RMK A01 T03140087  RH  025%=      5-min Rain = 0
KPD1 121854Z 11000KT 31/09 A3004 RMK A01 T03130094  RH  026%=      5-min Rain = 0
KPD1 121855Z 09001KT 32/09 A3004 RMK A01 T03150092  RH  025%=      5-min Rain = 0
KPD1 121856Z 15003KT 32/10 A3004 RMK A01 T03180100  RH  026%=      5-min Rain = 0
KPD1 121857Z 13003KT 32/10 A3004 RMK A01 T03210102  RH  026%=      5-min Rain = 0
KPD1 121858Z 17004KT 32/10 A3004 RMK A01 T03230102  RH  026%=      5-min Rain = 0
KPD1 121859Z 15003KT 32/10 A3004 RMK A01 T03220099  RH  025%=      5-min Rain = 0
KPD1 121900Z 10003KT 32/10 A3004 RMK A01 T03210104  RH  026%=      5-min Rain = 0
KPD1 121901Z 10003KT 32/10 A3004 RMK A01 T03230103  RH  026%=      5-min Rain = 0
KPD1 121902Z 10003KT 33/10 A3004 RMK A01 T03250101  RH  025%=      5-min Rain = 0
KPD1 121903Z 12001KT 33/10 A3003 RMK A01 T03250101  RH  025%=      5-min Rain = 0
KPD1 121904Z 17002KT 33/10 A3003 RMK A01 T03260102  RH  025%=      5-min Rain = 0
KPD1 121905Z 10003KT 33/10 A3003 RMK A01 T03250100  RH  025%=      5-min Rain = 0
KPD1 121906Z 08003KT 33/10 A3003 RMK A01 T03250102  RH  025%=      5-min Rain = 0
KPD1 121907Z 08005KT 33/10 A3003 RMK A01 T03250102  RH  025%=      5-min Rain = 0
KPD1 121908Z 07004KT 33/10 A3003 RMK A01 T03260103  RH  026%=      5-min Rain = 0
KPD1 121909Z 07003KT 33/10 A3003 RMK A01 T03260099  RH  025%=      5-min Rain = 0
KPD1 121910Z 07002KT 33/10 A3003 RMK A01 T03260098  RH  025%=      5-min Rain = 0
KPD1 121911Z 05002KT 33/10 A3003 RMK A01 T03250097  RH  025%=      5-min Rain = 0
KPD1 121912Z 36003KT 32/10 A3003 RMK A01 T03240098  RH  025%=      5-min Rain = 0
KPD1 121913Z 03002KT 32/09 A3003 RMK A01 T03230094  RH  024%=      5-min Rain = 0
KPD1 121914Z 04002KT 32/10 A3003 RMK A01 T03210095  RH  025%=      5-min Rain = 0
KPD1 121915Z 06001KT 32/09 A3003 RMK A01 T03210092  RH  024%=      5-min Rain = 0
KPD1 121916Z 00002KT 32/09 A3003 RMK A01 T03210094  RH  025%=      5-min Rain = 0
KPD1 121917Z 32000KT 32/09 A3003 RMK A01 T03230094  RH  024%=      5-min Rain = 0
KPD1 121918Z 32001KT 32/09 A3003 RMK A01 T03230092  RH  024%=      5-min Rain = 0
KPD1 121919Z 15002KT 32/09 A3003 RMK A01 T03240090  RH  024%=      5-min Rain = 0
KPD1 121920Z 07000KT 32/09 A3003 RMK A01 T03240089  RH  023%=      5-min Rain = 0
KPD1 121921Z 11004KT 33/09 A3003 RMK A01 T03250094  RH  024%=      5-min Rain = 0
KPD1 121922Z 11002KT 33/09 A3003 RMK A01 T03270092  RH  024%=      5-min Rain = 0
KPD1 121923Z 10004KT 33/10 A3003 RMK A01 T03280102  RH  025%=      5-min Rain = 0
KPD1 121924Z 10002KT 33/10 A3003 RMK A01 T03300098  RH  024%=      5-min Rain = 0
KPD1 121925Z 02001KT 33/09 A3003 RMK A01 T03310094  RH  023%=      5-min Rain = 0
KPD1 121926Z 01002KT 33/09 A3003 RMK A01 T03320094  RH  023%=      5-min Rain = 0
KPD1 121927Z 02005KT 33/09 A3003 RMK A01 T03320088  RH  022%=      5-min Rain = 0
KPD1 121928Z 02004KT 33/09 A3003 RMK A01 T03290091  RH  023%=      5-min Rain = 0
KPD1 121929Z 03006KT 33/09 A3003 RMK A01 T03270091  RH  023%=      5-min Rain = 0
KPD1 121930Z 02004KT 33/09 A3003 RMK A01 T03260094  RH  024%=      5-min Rain = 0
KPD1 121931Z 02004KT 33/09 A3002 RMK A01 T03260093  RH  024%=      5-min Rain = 0
KPD1 121932Z 01002KT 33/09 A3002 RMK A01 T03260094  RH  024%=      5-min Rain = 0
KPD1 121933Z 02005KT 33/10 A3002 RMK A01 T03260097  RH  024%=      5-min Rain = 0
KPD1 121934Z 02004KT 33/09 A3002 RMK A01 T03260091  RH  023%=      5-min Rain = 0
KPD1 121935Z 01003KT 33/09 A3002 RMK A01 T03250090  RH  023%=      5-min Rain = 0
KPD1 121936Z 36005KT 32/10 A3002 RMK A01 T03240096  RH  025%=      5-min Rain = 0
KPD1 121937Z 00006KT 33/10 A3002 RMK A01 T03270101  RH  025%=      5-min Rain = 0
KPD1 121938Z 01004KT 33/10 A3002 RMK A01 T03300098  RH  024%=      5-min Rain = 0
KPD1 121939Z 01004KT 33/09 A3002 RMK A01 T03310090  RH  023%=      5-min Rain = 0
KPD1 121940Z 35004KT 33/09 A3002 RMK A01 T03300090  RH  023%=      5-min Rain = 0
KPD1 121941Z 34005KT 33/09 A3002 RMK A01 T03270094  RH  024%=      5-min Rain = 0
KPD1 121942Z 35004KT 33/09 A3002 RMK A01 T03270092  RH  023%=      5-min Rain = 0
KPD1 121943Z 33002KT 32/09 A3002 RMK A01 T03240091  RH  024%=      5-min Rain = 0
KPD1 121944Z 31002KT 32/09 A3002 RMK A01 T03230088  RH  023%=      5-min Rain = 0
KPD1 121945Z 30003KT 32/09 A3002 RMK A01 T03230092  RH  024%=      5-min Rain = 0
KPD1 121946Z 29004KT 32/09 A3001 RMK A01 T03230093  RH  024%=      5-min Rain = 0
KPD1 121947Z 28004KT 32/09 A3001 RMK A01 T03240094  RH  024%=      5-min Rain = 0
KPD1 121948Z 28002KT 33/09 A3001 RMK A01 T03250089  RH  023%=      5-min Rain = 0
KPD1 121949Z 31002KT 33/09 A3001 RMK A01 T03250091  RH  024%=      5-min Rain = 0
KPD1 121950Z 29003KT 33/10 A3001 RMK A01 T03260098  RH  025%=      5-min Rain = 0
KPD1 121951Z 28003KT 33/10 A3001 RMK A01 T03280098  RH  024%=      5-min Rain = 0
KPD1 121952Z 28003KT 33/09 A3001 RMK A01 T03290094  RH  024%=      5-min Rain = 0
KPD1 121953Z 28004KT 33/09 A3001 RMK A01 T03290093  RH  023%=      5-min Rain = 0
KPD1 121954Z 27003KT 33/09 A3001 RMK A01 T03290093  RH  023%=      5-min Rain = 0
KPD1 121955Z 26002KT 33/09 A3001 RMK A01 T03290088  RH  023%=      5-min Rain = 0
KPD1 121956Z 23001KT 33/09 A3001 RMK A01 T03260090  RH  023%=      5-min Rain = 0
KPD1 121957Z 23000KT 33/09 A3001 RMK A01 T03260093  RH  024%=      5-min Rain = 0
KPD1 121958Z 27000KT 33/09 A3001 RMK A01 T03280093  RH  024%=      5-min Rain = 0
KPD1 121959Z 06000KT 33/10 A3001 RMK A01 T03320098  RH  024%=      5-min Rain = 0
KPD1 122000Z 01001KT 33/10 A3001 RMK A01 T03340099  RH  024%=      5-min Rain = 0
KPD1 122001Z 00001KT 34/10 A3001 RMK A01 T03350099  RH  024%=      5-min Rain = 0
KPD1 122002Z 07002KT 34/10 A3001 RMK A01 T03350098  RH  023%=      5-min Rain = 0
KPD1 122003Z 07002KT 34/10 A30 RMK A01 T03350096  RH  023%=      5-min Rain = 0
KPD1 122004Z 14001KT 33/10 A30 RMK A01 T03340101  RH  024%=      5-min Rain = 0
KPD1 122005Z 19000KT 33/10 A30 RMK A01 T03330097  RH  023%=      5-min Rain = 0
KPD1 122006Z 07001KT 34/10 A30 RMK A01 T03350102  RH  024%=      5-min Rain = 0
KPD1 122007Z 05005KT 34/10 A30 RMK A01 T03380102  RH  024%=      5-min Rain = 0
KPD1 122008Z 06005KT 34/10 A30 RMK A01 T03380103  RH  024%=      5-min Rain = 0
KPD1 122009Z 06006KT 34/10 A30 RMK A01 T03380103  RH  024%=      5-min Rain = 0
KPD1 122010Z 06004KT 34/11 A30 RMK A01 T03380106  RH  024%=      5-min Rain = 0
KPD1 122011Z 05002KT 34/10 A30 RMK A01 T03390103  RH  024%=      5-min Rain = 0
KPD1 122012Z 06001KT 34/10 A30 RMK A01 T03390102  RH  024%=      5-min Rain = 0
KPD1 122013Z 13001KT 34/10 A30 RMK A01 T03390096  RH  023%=      5-min Rain = 0
KPD1 122014Z 12001KT 34/10 A30 RMK A01 T03390098  RH  023%=      5-min Rain = 0
KPD1 122015Z 12001KT 34/10 A30 RMK A01 T03390098  RH  023%=      5-min Rain = 0
KPD1 122016Z 14001KT 34/10 A30 RMK A01 T03390103  RH  024%=      5-min Rain = 0
KPD1 122017Z 25000KT 34/10 A30 RMK A01 T03400099  RH  023%=      5-min Rain = 0
KPD1 122018Z 19003KT 34/10 A30 RMK A01 T03410097  RH  022%=      5-min Rain = 0
KPD1 122019Z 20003KT 34/10 A30 RMK A01 T03400097  RH  023%=      5-min Rain = 0
KPD1 122020Z 19003KT 34/10 A30 RMK A01 T03390097  RH  023%=      5-min Rain = 0
KPD1 122021Z 18003KT 34/10 A30 RMK A01 T03370095  RH  023%=      5-min Rain = 0
KPD1 122022Z 25003KT 34/10 A2999 RMK A01 T03360095  RH  023%=      5-min Rain = 0
KPD1 122023Z 21005KT 34/10 A2999 RMK A01 T03350100  RH  024%=      5-min Rain = 0
KPD1 122024Z 21005KT 34/10 A2999 RMK A01 T03370101  RH  024%=      5-min Rain = 0
KPD1 122025Z 25005KT 34/10 A2999 RMK A01 T03370095  RH  023%=      5-min Rain = 0
KPD1 122026Z 26006KT 34/10 A2999 RMK A01 T03350099  RH  023%=      5-min Rain = 0
KPD1 122027Z 26006KT 34/10 A2999 RMK A01 T03360104  RH  024%=      5-min Rain = 0
KPD1 122028Z 25006KT 34/10 A2999 RMK A01 T03390101  RH  023%=      5-min Rain = 0
KPD1 122029Z 24004KT 34/10 A2999 RMK A01 T03380096  RH  023%=      5-min Rain = 0
KPD1 122030Z 26004KT 34/09 A2999 RMK A01 T03350094  RH  023%=      5-min Rain = 0
KPD1 122031Z 26002KT 33/10 A2999 RMK A01 T03340100  RH  024%=      5-min Rain = 0
KPD1 122032Z 23002KT 33/10 A2999 RMK A01 T03330095  RH  023%=      5-min Rain = 0
KPD1 122033Z 22001KT 33/10 A2999 RMK A01 T03330100  RH  024%=      5-min Rain = 0
KPD1 122034Z 18001KT 34/11 A2999 RMK A01 T03360105  RH  024%=      5-min Rain = 0
KPD1 122035Z 33004KT 34/11 A2999 RMK A01 T03390105  RH  024%=      5-min Rain = 0
KPD1 122036Z 30004KT 34/11 A2999 RMK A01 T03400105  RH  024%=      5-min Rain = 0
KPD1 122037Z 28008KT 34/10 A2999 RMK A01 T03400101  RH  023%=      5-min Rain = 0
KPD1 122038Z 27005KT 34/10 A2999 RMK A01 T03380101  RH  024%=      5-min Rain = 0
KPD1 122039Z 30004KT 34/10 A2999 RMK A01 T03370100  RH  023%=      5-min Rain = 0
KPD1 122040Z 31001KT 34/10 A2999 RMK A01 T03360097  RH  023%=      5-min Rain = 0
KPD1 122041Z 32003KT 34/10 A2999 RMK A01 T03360096  RH  023%=      5-min Rain = 0
KPD1 122042Z 33004KT 34/10 A2998 RMK A01 T03350099  RH  023%=      5-min Rain = 0
KPD1 122043Z 32004KT 34/10 A2998 RMK A01 T03350099  RH  024%=      5-min Rain = 0
KPD1 122044Z 29004KT 34/10 A2998 RMK A01 T03350101  RH  024%=      5-min Rain = 0
KPD1 122045Z 30004KT 34/10 A2998 RMK A01 T03360102  RH  024%=      5-min Rain = 0
KPD1 122046Z 32004KT 34/10 A2998 RMK A01 T03370099  RH  023%=      5-min Rain = 0
KPD1 122047Z 34001KT 34/09 A2998 RMK A01 T03350093  RH  023%=      5-min Rain = 0
KPD1 122048Z 21000KT 33/09 A2998 RMK A01 T03330093  RH  023%=      5-min Rain = 0
KPD1 122049Z 23003KT 33/10 A2998 RMK A01 T03340101  RH  024%=      5-min Rain = 0
KPD1 122050Z 23004KT 34/10 A2998 RMK A01 T03360098  RH  023%=      5-min Rain = 0
KPD1 122051Z 26006KT 34/10 A2998 RMK A01 T03370100  RH  023%=      5-min Rain = 0
KPD1 122052Z 25006KT 34/10 A2998 RMK A01 T03370097  RH  023%=      5-min Rain = 0
KPD1 122053Z 25003KT 34/10 A2998 RMK A01 T03360099  RH  023%=      5-min Rain = 0
KPD1 122054Z 23004KT 34/10 A2998 RMK A01 T03360100  RH  024%=      5-min Rain = 0
KPD1 122055Z 24001KT 34/10 A2998 RMK A01 T03370098  RH  023%=      5-min Rain = 0
KPD1 122056Z 31004KT 34/10 A2998 RMK A01 T03360101  RH  024%=      5-min Rain = 0
KPD1 122057Z 32003KT 34/10 A2998 RMK A01 T03350095  RH  023%=      5-min Rain = 0
KPD1 122058Z 33002KT 33/10 A2998 RMK A01 T03330097  RH  024%=      5-min Rain = 0
KPD1 122059Z 35002KT 33/10 A2998 RMK A01 T03330095  RH  023%=      5-min Rain = 0
KPD1 122100Z 02002KT 33/10 A2998 RMK A01 T03320095  RH  023%=      5-min Rain = 0
KPD1 122101Z 07002KT 33/10 A2998 RMK A01 T03310097  RH  024%=      5-min Rain = 0
KPD1 122102Z 12001KT 33/10 A2998 RMK A01 T03300098  RH  024%=      5-min Rain = 0
KPD1 122103Z 15001KT 33/10 A2998 RMK A01 T03300097  RH  024%=      5-min Rain = 0
KPD1 122104Z 14001KT 33/10 A2998 RMK A01 T03330102  RH  024%=      5-min Rain = 0
KPD1 122105Z 18002KT 34/10 A2998 RMK A01 T03360102  RH  024%=      5-min Rain = 0
KPD1 122106Z 22003KT 34/10 A2997 RMK A01 T03390102  RH  024%=      5-min Rain = 0
KPD1 122107Z 21003KT 34/10 A2997 RMK A01 T03410104  RH  023%=      5-min Rain = 0
KPD1 122108Z 21003KT 34/10 A2997 RMK A01 T03420100  RH  023%=      5-min Rain = 0
KPD1 122109Z 23001KT 34/10 A2997 RMK A01 T03410104  RH  024%=      5-min Rain = 0
KPD1 122110Z 21005KT 34/11 A2997 RMK A01 T03420106  RH  024%=      5-min Rain = 0
KPD1 122111Z 21005KT 34/10 A2997 RMK A01 T03430101  RH  023%=      5-min Rain = 0
KPD1 122112Z 22005KT 34/10 A2997 RMK A01 T03400100  RH  023%=      5-min Rain = 0
KPD1 122113Z 20003KT 34/10 A2997 RMK A01 T03380096  RH  023%=      5-min Rain = 0
KPD1 122114Z 20002KT 34/10 A2997 RMK A01 T03360098  RH  023%=      5-min Rain = 0
KPD1 122115Z 23002KT 34/10 A2997 RMK A01 T03360103  RH  024%=      5-min Rain = 0
KPD1 122116Z 22002KT 34/10 A2997 RMK A01 T03370100  RH  023%=      5-min Rain = 0
KPD1 122117Z 22003KT 34/10 A2997 RMK A01 T03370097  RH  023%=      5-min Rain = 0
KPD1 122118Z 22004KT 34/10 A2997 RMK A01 T03360097  RH  023%=      5-min Rain = 0
KPD1 122119Z 20003KT 33/09 A2997 RMK A01 T03330093  RH  023%=      5-min Rain = 0
KPD1 122120Z 19002KT 33/10 A2997 RMK A01 T03310095  RH  023%=      5-min Rain = 0
KPD1 122121Z 12001KT 33/10 A2997 RMK A01 T03310097  RH  024%=      5-min Rain = 0
KPD1 122122Z 10004KT 33/10 A2997 RMK A01 T03310099  RH  024%=      5-min Rain = 0
KPD1 122123Z 08002KT 33/10 A2997 RMK A01 T03300103  RH  025%=      5-min Rain = 0
KPD1 122124Z 09002KT 33/10 A2997 RMK A01 T03300098  RH  024%=      5-min Rain = 0
KPD1 122125Z 12001KT 33/10 A2997 RMK A01 T03290099  RH  024%=      5-min Rain = 0
KPD1 122126Z 13004KT 33/10 A2997 RMK A01 T03290102  RH  025%=      5-min Rain = 0
KPD1 122127Z 20005KT 33/11 A2997 RMK A01 T03300106  RH  025%=      5-min Rain = 0
KPD1 122128Z 21004KT 33/10 A2997 RMK A01 T03310103  RH  025%=      5-min Rain = 0
KPD1 122129Z 15004KT 33/10 A2997 RMK A01 T03330102  RH  024%=      5-min Rain = 0
KPD1 122130Z 15003KT 33/09 A2997 RMK A01 T03330094  RH  023%=      5-min Rain = 0
KPD1 122131Z 15002KT 33/09 A2997 RMK A01 T03300094  RH  023%=      5-min Rain = 0
KPD1 122132Z 17002KT 33/10 A2997 RMK A01 T03290102  RH  025%=      5-min Rain = 0
KPD1 122133Z 17004KT 33/10 A2997 RMK A01 T03290099  RH  024%=      5-min Rain = 0
KPD1 122134Z 17004KT 33/10 A2997 RMK A01 T03290099  RH  024%=      5-min Rain = 0
KPD1 122135Z 18003KT 33/10 A2997 RMK A01 T03300102  RH  025%=      5-min Rain = 0
KPD1 122136Z 13002KT 33/11 A2997 RMK A01 T03310106  RH  025%=      5-min Rain = 0
KPD1 122137Z 16002KT 33/11 A2997 RMK A01 T03330108  RH  025%=      5-min Rain = 0
KPD1 122138Z 15002KT 33/11 A2997 RMK A01 T03340106  RH  025%=      5-min Rain = 0
KPD1 122139Z 18002KT 34/11 A2997 RMK A01 T03350110  RH  025%=      5-min Rain = 0
KPD1 122140Z 17004KT 34/11 A2997 RMK A01 T03350108  RH  025%=      5-min Rain = 0
KPD1 122141Z 15003KT 33/11 A2997 RMK A01 T03330105  RH  025%=      5-min Rain = 0
KPD1 122142Z 12002KT 33/11 A2997 RMK A01 T03310106  RH  025%=      5-min Rain = 0
KPD1 122143Z 11002KT 33/11 A2997 RMK A01 T03300110  RH  026%=      5-min Rain = 0
KPD1 122144Z 25000KT 33/11 A2996 RMK A01 T03300109  RH  026%=      5-min Rain = 0
KPD1 122145Z 26002KT 33/11 A2996 RMK A01 T03310113  RH  026%=      5-min Rain = 0
KPD1 122146Z 23001KT 33/11 A2996 RMK A01 T03340109  RH  025%=      5-min Rain = 0
KPD1 122147Z 15003KT 34/11 A2996 RMK A01 T03350111  RH  026%=      5-min Rain = 0
KPD1 122148Z 15002KT 34/11 A2996 RMK A01 T03350111  RH  026%=      5-min Rain = 0
KPD1 122149Z 20002KT 33/11 A2996 RMK A01 T03330105  RH  025%=      5-min Rain = 0
KPD1 122150Z 19002KT 33/11 A2996 RMK A01 T03300105  RH  025%=      5-min Rain = 0
KPD1 122151Z 18004KT 33/11 A2996 RMK A01 T03290109  RH  026%=      5-min Rain = 0
KPD1 122152Z 16003KT 33/11 A2996 RMK A01 T03290106  RH  026%=      5-min Rain = 0
KPD1 122153Z 18003KT 33/11 A2996 RMK A01 T03290106  RH  026%=      5-min Rain = 0
KPD1 122154Z 18004KT 33/11 A2996 RMK A01 T03290111  RH  026%=      5-min Rain = 0
KPD1 122155Z 16004KT 33/12 A2996 RMK A01 T03290115  RH  027%=      5-min Rain = 0
KPD1 122156Z 16005KT 33/12 A2996 RMK A01 T03300117  RH  027%=      5-min Rain = 0
KPD1 122157Z 15005KT 33/12 A2996 RMK A01 T03300115  RH  027%=      5-min Rain = 0
KPD1 122158Z 16005KT 33/12 A2996 RMK A01 T03300116  RH  027%=      5-min Rain = 0
KPD1 122159Z 17005KT 33/12 A2996 RMK A01 T03310115  RH  027%=      5-min Rain = 0
KPD1 122200Z 16003KT 33/12 A2996 RMK A01 T03310117  RH  027%=      5-min Rain = 0
KPD1 122201Z 16006KT 33/12 A2996 RMK A01 T03320117  RH  027%=      5-min Rain = 0
KPD1 122202Z 16007KT 33/11 A2996 RMK A01 T03330114  RH  026%=      5-min Rain = 0
KPD1 122203Z 15007KT 33/11 A2996 RMK A01 T03330111  RH  026%=      5-min Rain = 0
KPD1 122204Z 15007KT 33/11 A2996 RMK A01 T03320112  RH  026%=      5-min Rain = 0
KPD1 122205Z 16007KT 33/11 A2996 RMK A01 T03320114  RH  027%=      5-min Rain = 0
KPD1 122206Z 17006KT 33/12 A2996 RMK A01 T03320115  RH  027%=      5-min Rain = 0
KPD1 122207Z 17005KT 33/11 A2996 RMK A01 T03330111  RH  026%=      5-min Rain = 0
KPD1 122208Z 17004KT 33/11 A2996 RMK A01 T03330107  RH  025%=      5-min Rain = 0
KPD1 122209Z 22002KT 33/11 A2996 RMK A01 T03330106  RH  025%=      5-min Rain = 0
KPD1 122210Z 20005KT 33/11 A2996 RMK A01 T03330107  RH  025%=      5-min Rain = 0
KPD1 122211Z 18005KT 33/11 A2996 RMK A01 T03340109  RH  025%=      5-min Rain = 0
KPD1 122212Z 18003KT 34/11 A2996 RMK A01 T03350112  RH  026%=      5-min Rain = 0
KPD1 122213Z 20000KT 34/10 A2996 RMK A01 T03350104  RH  024%=      5-min Rain = 0
KPD1 122214Z 21004KT 34/10 A2996 RMK A01 T03360104  RH  024%=      5-min Rain = 0
KPD1 122215Z 20006KT 34/11 A2996 RMK A01 T03360107  RH  025%=      5-min Rain = 0
KPD1 122216Z 22004KT 34/11 A2996 RMK A01 T03360107  RH  025%=      5-min Rain = 0
KPD1 122217Z 24004KT 34/10 A2996 RMK A01 T03360103  RH  024%=      5-min Rain = 0
KPD1 122218Z 25003KT 34/11 A2996 RMK A01 T03350106  RH  025%=      5-min Rain = 0
KPD1 122219Z 23005KT 34/11 A2996 RMK A01 T03350108  RH  025%=      5-min Rain = 0
KPD1 122220Z 24006KT 34/11 A2996 RMK A01 T03350105  RH  025%=      5-min Rain = 0
KPD1 122221Z 24005KT 33/10 A2996 RMK A01 T03340103  RH  024%=      5-min Rain = 0
KPD1 122222Z 17002KT 33/10 A2996 RMK A01 T03330104  RH  025%=      5-min Rain = 0
KPD1 122223Z 11003KT 33/11 A2996 RMK A01 T03330109  RH  025%=      5-min Rain = 0
KPD1 122224Z 14003KT 34/11 A2996 RMK A01 T03350114  RH  026%=      5-min Rain = 0
KPD1 122225Z 09003KT 34/12 A2996 RMK A01 T03360118  RH  027%=      5-min Rain = 0
KPD1 122226Z 10005KT 34/12 A2996 RMK A01 T03370116  RH  026%=      5-min Rain = 0
KPD1 122227Z 12003KT 34/12 A2996 RMK A01 T03360115  RH  026%=      5-min Rain = 0
KPD1 122228Z 14004KT 34/12 A2996 RMK A01 T03360119  RH  027%=      5-min Rain = 0
KPD1 122229Z 13003KT 34/12 A2996 RMK A01 T03360118  RH  027%=      5-min Rain = 0
KPD1 122230Z 15005KT 34/12 A2996 RMK A01 T03370119  RH  027%=      5-min Rain = 0
KPD1 122231Z 14003KT 34/12 A2996 RMK A01 T03360116  RH  026%=      5-min Rain = 0
KPD1 122232Z 16006KT 34/12 A2996 RMK A01 T03350119  RH  027%=      5-min Rain = 0
KPD1 122233Z 13005KT 34/12 A2996 RMK A01 T03350119  RH  027%=      5-min Rain = 0
KPD1 122234Z 13006KT 33/12 A2996 RMK A01 T03340119  RH  027%=      5-min Rain = 0
KPD1 122235Z 12006KT 33/12 A2996 RMK A01 T03330121  RH  028%=      5-min Rain = 0
KPD1 122236Z 13007KT 33/12 A2996 RMK A01 T03320122  RH  028%=      5-min Rain = 0
KPD1 122237Z 09008KT 33/12 A2996 RMK A01 T03310119  RH  028%=      5-min Rain = 0
KPD1 122238Z 12009KT 33/12 A2996 RMK A01 T03290119  RH  028%=      5-min Rain = 0
KPD1 122239Z 11007G12KT 33/12 A2996 RMK A01 T03280121  RH  028%=      5-min Rain = 0
KPD1 122240Z 11007KT 33/12 A2996 RMK A01 T03270119  RH  028%=      5-min Rain = 0
KPD1 122241Z 09008KT 33/12 A2996 RMK A01 T03270121  RH  029%=      5-min Rain = 0
KPD1 122242Z 11009KT 33/12 A2996 RMK A01 T03260121  RH  029%=      5-min Rain = 0
KPD1 122243Z 13007KT 33/12 A2996 RMK A01 T03250118  RH  028%=      5-min Rain = 0
KPD1 122244Z 11005KT 32/12 A2996 RMK A01 T03240123  RH  029%=      5-min Rain = 0
KPD1 122245Z 11008KT 32/12 A2996 RMK A01 T03240123  RH  029%=      5-min Rain = 0
KPD1 122246Z 15006KT 32/12 A2996 RMK A01 T03240124  RH  030%=      5-min Rain = 0
KPD1 122247Z 13006KT 33/12 A2996 RMK A01 T03250124  RH  029%=      5-min Rain = 0
KPD1 122248Z 15008KT 33/12 A2996 RMK A01 T03250121  RH  029%=      5-min Rain = 0
KPD1 122249Z 14005KT 32/12 A2996 RMK A01 T03240121  RH  029%=      5-min Rain = 0
KPD1 122250Z 13005KT 32/13 A2996 RMK A01 T03240125  RH  030%=      5-min Rain = 0
KPD1 122251Z 12008KT 33/12 A2996 RMK A01 T03250123  RH  029%=      5-min Rain = 0
KPD1 122252Z 11008KT 33/12 A2996 RMK A01 T03250119  RH  028%=      5-min Rain = 0
KPD1 122253Z 12008KT 32/12 A2996 RMK A01 T03230120  RH  029%=      5-min Rain = 0
KPD1 122254Z 11009KT 32/12 A2996 RMK A01 T03230122  RH  029%=      5-min Rain = 0
KPD1 122255Z 11011KT 32/12 A2996 RMK A01 T03230122  RH  029%=      5-min Rain = 0
KPD1 122256Z 11008KT 32/12 A2996 RMK A01 T03220121  RH  029%=      5-min Rain = 0
KPD1 122257Z 11007KT 32/12 A2996 RMK A01 T03200120  RH  030%=      5-min Rain = 0
KPD1 122258Z 12007KT 32/12 A2996 RMK A01 T03190122  RH  030%=      5-min Rain = 0
KPD1 122259Z 10008KT 32/12 A2996 RMK A01 T03190123  RH  030%=      5-min Rain = 0
KPD1 122300Z 11007KT 32/12 A2996 RMK A01 T03190124  RH  030%=      5-min Rain = 0
KPD1 122301Z 12005KT 32/12 A2996 RMK A01 T03190122  RH  030%=      5-min Rain = 0
KPD1 122302Z 14006KT 32/12 A2996 RMK A01 T03200123  RH  030%=      5-min Rain = 0
KPD1 122303Z 17009KT 32/12 A2996 RMK A01 T03190122  RH  030%=      5-min Rain = 0
KPD1 122304Z 14008KT 32/12 A2996 RMK A01 T03180122  RH  030%=      5-min Rain = 0
KPD1 122305Z 16010KT 32/12 A2996 RMK A01 T03170122  RH  030%=      5-min Rain = 0
KPD1 122306Z 14006G11KT 32/12 A2996 RMK A01 T03160123  RH  031%=      5-min Rain = 0
KPD1 122307Z 13004KT 32/13 A2996 RMK A01 T03160126  RH  031%=      5-min Rain = 0
KPD1 122308Z 14005KT 32/12 A2996 RMK A01 T03160124  RH  031%=      5-min Rain = 0
KPD1 122309Z 16010KT 32/13 A2996 RMK A01 T03160125  RH  031%=      5-min Rain = 0
KPD1 122310Z 15006KT 32/12 A2996 RMK A01 T03160123  RH  031%=      5-min Rain = 0
KPD1 122311Z 15006KT 32/12 A2996 RMK A01 T03150123  RH  031%=      5-min Rain = 0
KPD1 122312Z 14004KT 31/13 A2996 RMK A01 T03140125  RH  031%=      5-min Rain = 0
KPD1 122313Z 14004KT 31/12 A2996 RMK A01 T03140124  RH  031%=      5-min Rain = 0
KPD1 122314Z 13004KT 31/12 A2996 RMK A01 T03140124  RH  031%=      5-min Rain = 0
KPD1 122315Z 14004G9KT 31/13 A2996 RMK A01 T03140127  RH  032%=      5-min Rain = 0
KPD1 122316Z 13005KT 31/13 A2996 RMK A01 T03140126  RH  032%=      5-min Rain = 0
KPD1 122317Z 14005KT 32/13 A2996 RMK A01 T03150126  RH  032%=      5-min Rain = 0
KPD1 122318Z 15006KT 32/13 A2996 RMK A01 T03150127  RH  032%=      5-min Rain = 0
KPD1 122319Z 14006KT 32/13 A2996 RMK A01 T03150126  RH  032%=      5-min Rain = 0
KPD1 122320Z 13005KT 31/13 A2996 RMK A01 T03140125  RH  031%=      5-min Rain = 0
KPD1 122321Z 12008KT 31/13 A2996 RMK A01 T03140126  RH  032%=      5-min Rain = 0
KPD1 122322Z 16007KT 31/13 A2996 RMK A01 T03130126  RH  032%=      5-min Rain = 0
KPD1 122323Z 16007KT 31/12 A2996 RMK A01 T03130124  RH  032%=      5-min Rain = 0
KPD1 122324Z 15008KT 31/12 A2996 RMK A01 T03120124  RH  032%=      5-min Rain = 0
KPD1 122325Z 15006KT 31/12 A2996 RMK A01 T03120124  RH  032%=      5-min Rain = 0
KPD1 122326Z 14005KT 31/13 A2996 RMK A01 T03110125  RH  032%=      5-min Rain = 0
KPD1 122327Z 12005KT 31/13 A2996 RMK A01 T03110127  RH  032%=      5-min Rain = 0
KPD1 122328Z 15004KT 31/13 A2996 RMK A01 T03110126  RH  032%=      5-min Rain = 0
KPD1 122329Z 16007G12KT 31/13 A2996 RMK A01 T03110125  RH  032%=      5-min Rain = 0
KPD1 122330Z 14005KT 31/13 A2996 RMK A01 T03110125  RH  032%=      5-min Rain = 0
KPD1 122331Z 16008KT 31/13 A2995 RMK A01 T03100125  RH  032%=      5-min Rain = 0
KPD1 122332Z 14006KT 31/12 A2996 RMK A01 T03090124  RH  032%=      5-min Rain = 0
KPD1 122333Z 12005KT 31/13 A2996 RMK A01 T03090126  RH  033%=      5-min Rain = 0
KPD1 122334Z 14005KT 31/13 A2996 RMK A01 T03080127  RH  033%=      5-min Rain = 0
KPD1 122335Z 13007G13KT 31/13 A2996 RMK A01 T03080127  RH  033%=      5-min Rain = 0
KPD1 122336Z 12008KT 31/12 A2996 RMK A01 T03070124  RH  033%=      5-min Rain = 0
KPD1 122337Z 13007G14KT 31/12 A2995 RMK A01 T03060123  RH  033%=      5-min Rain = 0
KPD1 122338Z 15009KT 31/12 A2996 RMK A01 T03050124  RH  033%=      5-min Rain = 0
KPD1 122339Z 15009KT 31/12 A2995 RMK A01 T03050124  RH  033%=      5-min Rain = 0
KPD1 122340Z 16008KT 30/12 A2995 RMK A01 T03040123  RH  033%=      5-min Rain = 0
KPD1 122341Z 15010KT 30/12 A2996 RMK A01 T03030124  RH  033%=      5-min Rain = 0
KPD1 122342Z 15010KT 30/12 A2996 RMK A01 T03030123  RH  033%=      5-min Rain = 0
KPD1 122343Z 15006KT 30/12 A2996 RMK A01 T03020122  RH  033%=      5-min Rain = 0
KPD1 122344Z 15006G11KT 30/12 A2996 RMK A01 T03020124  RH  034%=      5-min Rain = 0
KPD1 122345Z 15006KT 30/12 A2996 RMK A01 T03010123  RH  033%=      5-min Rain = 0
KPD1 122346Z 15010KT 30/12 A2996 RMK A01 T03010124  RH  034%=      5-min Rain = 0
KPD1 122347Z 15012KT 30/12 A2996 RMK A01 T03010124  RH  034%=      5-min Rain = 0
KPD1 122348Z 15010KT 30/12 A2996 RMK A01 T03000124  RH  034%=      5-min Rain = 0
KPD1 122349Z 15009KT 30/12 A2996 RMK A01 T03000124  RH  034%=      5-min Rain = 0
KPD1 122350Z 14006KT 30/13 A2996 RMK A01 T02990125  RH  034%=      5-min Rain = 0
KPD1 122351Z 16009KT 30/12 A2996 RMK A01 T02990124  RH  034%=      5-min Rain = 0
KPD1 122352Z 15007KT 30/12 A2996 RMK A01 T02980124  RH  034%=      5-min Rain = 0
KPD1 122353Z 14006KT 30/12 A2996 RMK A01 T02980124  RH  034%=      5-min Rain = 0
KPD1 122354Z 15007KT 30/12 A2996 RMK A01 T02980124  RH  034%=      5-min Rain = 0
KPD1 122355Z 16010KT 30/12 A2996 RMK A01 T02970122  RH  034%=      5-min Rain = 0
KPD1 122356Z 14010KT 30/12 A2996 RMK A01 T02970123  RH  034%=      5-min Rain = 0
KPD1 122357Z 15004KT 30/12 A2996 RMK A01 T02960122  RH  034%=      5-min Rain = 0
KPD1 122358Z 16008KT 30/12 A2996 RMK A01 T02960123  RH  034%=      5-min Rain = 0
KPD1 122359Z 15006G11KT 30/12 A2996 RMK A01 T02960123  RH  034%=      5-min Rain = 0
KPD1 130000Z 15007KT 30/12 A2996 RMK A01 T02960124  RH  035%=      5-min Rain = 0
KPD1 130001Z 14006KT 30/12 A2996 RMK A01 T02950124  RH  035%=      5-min Rain = 0
KPD1 130002Z 14007KT 30/12 A2996 RMK A01 T02950124  RH  035%=      5-min Rain = 0
KPD1 130003Z 15010KT 30/12 A2996 RMK A01 T02950124  RH  035%=      5-min Rain = 0
KPD1 130004Z 15008KT 29/12 A2996 RMK A01 T02940123  RH  035%=      5-min Rain = 0
KPD1 130005Z 15008KT 29/12 A2996 RMK A01 T02940124  RH  035%=      5-min Rain = 0
KPD1 130006Z 16009KT 29/12 A2996 RMK A01 T02930123  RH  035%=      5-min Rain = 0
KPD1 130007Z 16008KT 29/12 A2996 RMK A01 T02930123  RH  035%=      5-min Rain = 0
KPD1 130008Z 15007KT 29/12 A2996 RMK A01 T02920123  RH  035%=      5-min Rain = 0
KPD1 130009Z 15005KT 29/12 A2996 RMK A01 T02920123  RH  035%=      5-min Rain = 0
KPD1 130010Z 14003KT 29/12 A2996 RMK A01 T02920124  RH  036%=      5-min Rain = 0
KPD1 130011Z 13006KT 29/12 A2996 RMK A01 T02910124  RH  036%=      5-min Rain = 0
KPD1 130012Z 14005KT 29/12 A2996 RMK A01 T02910123  RH  036%=      5-min Rain = 0
KPD1 130013Z 16008KT 29/12 A2996 RMK A01 T02900123  RH  036%=      5-min Rain = 0
KPD1 130014Z 13005KT 29/12 A2996 RMK A01 T02900123  RH  036%=      5-min Rain = 0
KPD1 130015Z 15005KT 29/12 A2996 RMK A01 T02890124  RH  036%=      5-min Rain = 0
KPD1 130016Z 16007KT 29/12 A2996 RMK A01 T02880123  RH  036%=      5-min Rain = 0
KPD1 130017Z 17008KT 29/12 A2996 RMK A01 T02880123  RH  036%=      5-min Rain = 0
KPD1 130018Z 15008KT 29/12 A2996 RMK A01 T02880122  RH  036%=      5-min Rain = 0
KPD1 130019Z 15008KT 29/12 A2996 RMK A01 T02870122  RH  036%=      5-min Rain = 0
KPD1 130020Z 16008KT 29/12 A2996 RMK A01 T02870122  RH  036%=      5-min Rain = 0
KPD1 130021Z 16008KT 29/12 A2996 RMK A01 T02860123  RH  036%=      5-min Rain = 0
KPD1 130022Z 15007KT 29/12 A2996 RMK A01 T02860123  RH  037%=      5-min Rain = 0
KPD1 130023Z 15008KT 29/12 A2996 RMK A01 T02850122  RH  037%=      5-min Rain = 0
KPD1 130024Z 15008KT 28/12 A2996 RMK A01 T02840121  RH  036%=      5-min Rain = 0
KPD1 130025Z 15006KT 28/12 A2996 RMK A01 T02840121  RH  037%=      5-min Rain = 0
KPD1 130026Z 15007KT 28/12 A2996 RMK A01 T02840122  RH  037%=      5-min Rain = 0
KPD1 130027Z 15006KT 28/12 A2996 RMK A01 T02830122  RH  037%=      5-min Rain = 0
KPD1 130028Z 16006KT 28/12 A2996 RMK A01 T02820122  RH  037%=      5-min Rain = 0
KPD1 130029Z 15005KT 28/12 A2996 RMK A01 T02810122  RH  037%=      5-min Rain = 0
KPD1 130030Z 16008KT 28/12 A2996 RMK A01 T02810122  RH  037%=      5-min Rain = 0
KPD1 130031Z 15007KT 28/12 A2996 RMK A01 T02800121  RH  037%=      5-min Rain = 0
KPD1 130032Z 16007KT 28/12 A2996 RMK A01 T02790121  RH  037%=      5-min Rain = 0
KPD1 130033Z 16006KT 28/12 A2996 RMK A01 T02790121  RH  038%=      5-min Rain = 0
KPD1 130034Z 16007KT 28/12 A2996 RMK A01 T02780121  RH  038%=      5-min Rain = 0
KPD1 130035Z 16007KT 28/12 A2996 RMK A01 T02780121  RH  038%=      5-min Rain = 0
KPD1 130036Z 15006KT 28/12 A2996 RMK A01 T02780121  RH  038%=      5-min Rain = 0
KPD1 130037Z 15006KT 28/12 A2996 RMK A01 T02770121  RH  038%=      5-min Rain = 0
KPD1 130038Z 16006KT 28/12 A2996 RMK A01 T02760120  RH  038%=      5-min Rain = 0
KPD1 130039Z 16007KT 28/12 A2996 RMK A01 T02760121  RH  038%=      5-min Rain = 0
KPD1 130040Z 15007KT 28/12 A2996 RMK A01 T02750121  RH  038%=      5-min Rain = 0
KPD1 130041Z 15005KT 28/12 A2996 RMK A01 T02750121  RH  038%=      5-min Rain = 0
KPD1 130042Z 15005KT 27/12 A2996 RMK A01 T02740121  RH  039%=      5-min Rain = 0
KPD1 130043Z 15006KT 27/12 A2996 RMK A01 T02730121  RH  039%=      5-min Rain = 0
KPD1 130044Z 15005KT 27/12 A2996 RMK A01 T02730121  RH  039%=      5-min Rain = 0
KPD1 130045Z 15006KT 27/12 A2996 RMK A01 T02720121  RH  039%=      5-min Rain = 0
KPD1 130046Z 15005KT 27/12 A2996 RMK A01 T02720121  RH  039%=      5-min Rain = 0
KPD1 130047Z 15006KT 27/12 A2996 RMK A01 T02710121  RH  039%=      5-min Rain = 0
KPD1 130048Z 13005KT 27/12 A2996 RMK A01 T02700121  RH  040%=      5-min Rain = 0
KPD1 130049Z 15005KT 27/12 A2996 RMK A01 T02690121  RH  040%=      5-min Rain = 0
KPD1 130050Z 14006KT 27/12 A2996 RMK A01 T02690121  RH  040%=      5-min Rain = 0
KPD1 130051Z 14005KT 27/12 A2996 RMK A01 T02690121  RH  040%=      5-min Rain = 0
KPD1 130052Z 13006KT 27/12 A2996 RMK A01 T02680120  RH  040%=      5-min Rain = 0
KPD1 130053Z 14004KT 27/12 A2996 RMK A01 T02680120  RH  040%=      5-min Rain = 0
KPD1 130054Z 13005KT 27/12 A2996 RMK A01 T02680120  RH  040%=      5-min Rain = 0
KPD1 130055Z 14005KT 27/12 A2996 RMK A01 T02690121  RH  040%=      5-min Rain = 0
KPD1 130056Z 14006KT 27/12 A2996 RMK A01 T02680120  RH  040%=      5-min Rain = 0
KPD1 130057Z 14005KT 27/12 A2996 RMK A01 T02680120  RH  040%=      5-min Rain = 0
KPD1 130058Z 15006KT 27/12 A2996 RMK A01 T02680120  RH  040%=      5-min Rain = 0
KPD1 130059Z 14008KT 27/12 A2996 RMK A01 T02670120  RH  040%=      5-min Rain = 0
KPD1 130100Z 14006KT 27/12 A2996 RMK A01 T02670119  RH  040%=      5-min Rain = 0
KPD1 130101Z 15005KT 27/12 A2996 RMK A01 T02670119  RH  040%=      5-min Rain = 0
KPD1 130102Z 14005KT 27/12 A2996 RMK A01 T02670120  RH  040%=      5-min Rain = 0
KPD1 130103Z 14005KT 27/12 A2996 RMK A01 T02670120  RH  040%=      5-min Rain = 0
KPD1 130104Z 15005KT 27/12 A2996 RMK A01 T02670120  RH  040%=      5-min Rain = 0
KPD1 130105Z 14005KT 27/12 A2996 RMK A01 T02660120  RH  040%=      5-min Rain = 0
KPD1 130106Z 14004KT 27/12 A2996 RMK A01 T02660120  RH  040%=      5-min Rain = 0
KPD1 130107Z 14004KT 27/12 A2996 RMK A01 T02650120  RH  040%=      5-min Rain = 0
KPD1 130108Z 14004KT 27/12 A2996 RMK A01 T02650120  RH  040%=      5-min Rain = 0
KPD1 130109Z 14004KT 26/12 A2996 RMK A01 T02640120  RH  041%=      5-min Rain = 0
KPD1 130110Z 14004KT 26/12 A2996 RMK A01 T02630120  RH  041%=      5-min Rain = 0
KPD1 130111Z 14005KT 26/12 A2996 RMK A01 T02620119  RH  041%=      5-min Rain = 0
KPD1 130112Z 15005KT 26/12 A2996 RMK A01 T02620119  RH  041%=      5-min Rain = 0
KPD1 130113Z 15007KT 26/12 A2996 RMK A01 T02620119  RH  041%=      5-min Rain = 0
KPD1 130114Z 14007KT 26/12 A2996 RMK A01 T02620119  RH  041%=      5-min Rain = 0
KPD1 130115Z 14007KT 26/12 A2996 RMK A01 T02620119  RH  041%=      5-min Rain = 0
KPD1 130116Z 15007KT 26/12 A2996 RMK A01 T02620119  RH  041%=      5-min Rain = 0
KPD1 130117Z 14006KT 26/12 A2996 RMK A01 T02630119  RH  041%=      5-min Rain = 0
KPD1 130118Z 14006KT 26/12 A2996 RMK A01 T02630119  RH  041%=      5-min Rain = 0
KPD1 130119Z 13004KT 26/12 A2996 RMK A01 T02630120  RH  041%=      5-min Rain = 0
KPD1 130120Z 14004KT 26/12 A2996 RMK A01 T02620119  RH  041%=      5-min Rain = 0
KPD1 130121Z 14008KT 26/12 A2996 RMK A01 T02610120  RH  041%=      5-min Rain = 0
KPD1 130122Z 13008KT 26/12 A2996 RMK A01 T02610120  RH  041%=      5-min Rain = 0
KPD1 130123Z 13006KT 26/12 A2996 RMK A01 T02610120  RH  041%=      5-min Rain = 0
KPD1 130124Z 13007KT 26/12 A2996 RMK A01 T02620120  RH  041%=      5-min Rain = 0
KPD1 130125Z 14008KT 26/12 A2996 RMK A01 T02620120  RH  041%=      5-min Rain = 0
KPD1 130126Z 14007KT 26/12 A2996 RMK A01 T02620120  RH  041%=      5-min Rain = 0
KPD1 130127Z 15005KT 26/12 A2996 RMK A01 T02620120  RH  041%=      5-min Rain = 0
KPD1 130128Z 15006KT 26/12 A2996 RMK A01 T02610120  RH  041%=      5-min Rain = 0
KPD1 130129Z 14007KT 26/12 A2996 RMK A01 T02610120  RH  041%=      5-min Rain = 0
KPD1 130130Z 15006KT 26/12 A2996 RMK A01 T02600120  RH  042%=      5-min Rain = 0
KPD1 130131Z 15008KT 26/12 A2996 RMK A01 T02600120  RH  042%=      5-min Rain = 0
KPD1 130132Z 14008KT 26/12 A2996 RMK A01 T02600120  RH  042%=      5-min Rain = 0
KPD1 130133Z 14006KT 26/12 A2996 RMK A01 T02600120  RH  042%=      5-min Rain = 0
KPD1 130134Z 15007KT 26/12 A2996 RMK A01 T02600120  RH  042%=      5-min Rain = 0
KPD1 130135Z 13007KT 26/12 A2996 RMK A01 T02590120  RH  042%=      5-min Rain = 0
KPD1 130136Z 15005KT 26/12 A2996 RMK A01 T02590120  RH  042%=      5-min Rain = 0
KPD1 130137Z 13007KT 26/12 A2996 RMK A01 T02580120  RH  042%=      5-min Rain = 0
KPD1 130138Z 13007KT 26/12 A2996 RMK A01 T02580120  RH  042%=      5-min Rain = 0
KPD1 130139Z 14007KT 26/12 A2997 RMK A01 T02580120  RH  042%=      5-min Rain = 0
KPD1 130140Z 14006KT 26/12 A2997 RMK A01 T02580120  RH  042%=      5-min Rain = 0
KPD1 130141Z 14007KT 26/12 A2997 RMK A01 T02570119  RH  042%=      5-min Rain = 0
KPD1 130142Z 15006KT 26/12 A2997 RMK A01 T02570120  RH  042%=      5-min Rain = 0
KPD1 130143Z 15005KT 26/12 A2997 RMK A01 T02570120  RH  042%=      5-min Rain = 0
KPD1 130144Z 15006KT 26/12 A2997 RMK A01 T02560119  RH  042%=      5-min Rain = 0
KPD1 130145Z 14005KT 26/12 A2997 RMK A01 T02560120  RH  043%=      5-min Rain = 0
KPD1 130146Z 15004KT 26/12 A2997 RMK A01 T02550120  RH  043%=      5-min Rain = 0
KPD1 130147Z 14005KT 26/12 A2997 RMK A01 T02550120  RH  043%=      5-min Rain = 0
KPD1 130148Z 13004KT 25/12 A2997 RMK A01 T02540120  RH  043%=      5-min Rain = 0
KPD1 130149Z 13006KT 25/12 A2997 RMK A01 T02540120  RH  043%=      5-min Rain = 0
KPD1 130150Z 13007KT 25/12 A2997 RMK A01 T02540119  RH  043%=      5-min Rain = 0
KPD1 130151Z 14006KT 25/12 A2997 RMK A01 T02540119  RH  043%=      5-min Rain = 0
KPD1 130152Z 15006KT 25/12 A2997 RMK A01 T02540119  RH  043%=      5-min Rain = 0
KPD1 130153Z 14007KT 25/12 A2997 RMK A01 T02530119  RH  043%=      5-min Rain = 0
KPD1 130154Z 14006KT 25/12 A2997 RMK A01 T02530119  RH  043%=      5-min Rain = 0
KPD1 130155Z 15006KT 25/12 A2997 RMK A01 T02530119  RH  043%=      5-min Rain = 0
KPD1 130156Z 14004KT 25/12 A2997 RMK A01 T02530119  RH  043%=      5-min Rain = 0
KPD1 130157Z 14008KT 25/12 A2997 RMK A01 T02530119  RH  043%=      5-min Rain = 0
KPD1 130158Z 15006KT 25/12 A2997 RMK A01 T02530118  RH  043%=      5-min Rain = 0
KPD1 130159Z 14005KT 25/12 A2997 RMK A01 T02530118  RH  043%=      5-min Rain = 0
KPD1 130200Z 13006KT 25/12 A2997 RMK A01 T02530118  RH  043%=      5-min Rain = 0
KPD1 130201Z 13005KT 25/12 A2997 RMK A01 T02530118  RH  043%=      5-min Rain = 0
KPD1 130202Z 14005KT 25/12 A2998 RMK A01 T02520117  RH  043%=      5-min Rain = 0
KPD1 130203Z 14006KT 25/12 A2998 RMK A01 T02510118  RH  043%=      5-min Rain = 0
KPD1 130204Z 14006KT 25/12 A2998 RMK A01 T02510118  RH  043%=      5-min Rain = 0
KPD1 130205Z 15006KT 25/12 A2998 RMK A01 T02510117  RH  043%=      5-min Rain = 0
KPD1 130206Z 14007KT 25/12 A2998 RMK A01 T02510118  RH  043%=      5-min Rain = 0
KPD1 130207Z 14005KT 25/12 A2998 RMK A01 T02510117  RH  043%=      5-min Rain = 0
KPD1 130208Z 14004KT 25/12 A2998 RMK A01 T02510117  RH  043%=      5-min Rain = 0
KPD1 130209Z 15004KT 25/12 A2998 RMK A01 T02510117  RH  043%=      5-min Rain = 0
KPD1 130210Z 14005KT 25/12 A2998 RMK A01 T02500117  RH  044%=      5-min Rain = 0
KPD1 130211Z 14006KT 25/12 A2998 RMK A01 T02490117  RH  044%=      5-min Rain = 0
KPD1 130212Z 15004KT 25/12 A2998 RMK A01 T02490117  RH  044%=      5-min Rain = 0
KPD1 130213Z 14003KT 25/12 A2998 RMK A01 T02480117  RH  044%=      5-min Rain = 0
KPD1 130214Z 14003KT 25/12 A2998 RMK A01 T02480118  RH  044%=      5-min Rain = 0
KPD1 130215Z 14004KT 25/12 A2998 RMK A01 T02470117  RH  044%=      5-min Rain = 0
KPD1 130216Z 14004KT 25/12 A2998 RMK A01 T02460117  RH  044%=      5-min Rain = 0
KPD1 130217Z 15005KT 25/12 A2998 RMK A01 T02460117  RH  045%=      5-min Rain = 0
KPD1 130218Z 14005KT 25/12 A2998 RMK A01 T02450117  RH  045%=      5-min Rain = 0
KPD1 130219Z 15006KT 25/12 A2998 RMK A01 T02450116  RH  045%=      5-min Rain = 0
KPD1 130220Z 15004KT 25/12 A2998 RMK A01 T02450116  RH  044%=      5-min Rain = 0
KPD1 130221Z 14006KT 25/12 A2998 RMK A01 T02450116  RH  044%=      5-min Rain = 0
KPD1 130222Z 14006KT 25/12 A2998 RMK A01 T02450116  RH  044%=      5-min Rain = 0
KPD1 130223Z 14005KT 25/12 A2998 RMK A01 T02450116  RH  044%=      5-min Rain = 0
KPD1 130224Z 15006KT 25/12 A2998 RMK A01 T02450116  RH  044%=      5-min Rain = 0
KPD1 130225Z 14005KT 25/12 A2998 RMK A01 T02450116  RH  044%=      5-min Rain = 0
KPD1 130226Z 14004KT 25/12 A2998 RMK A01 T02460116  RH  044%=      5-min Rain = 0
KPD1 130227Z 15004KT 25/12 A2998 RMK A01 T02450116  RH  044%=      5-min Rain = 0
KPD1 130228Z 14005KT 25/12 A2998 RMK A01 T02460117  RH  044%=      5-min Rain = 0
KPD1 130229Z 14005KT 25/12 A2998 RMK A01 T02450117  RH  045%=      5-min Rain = 0
KPD1 130230Z 15005KT 25/12 A2998 RMK A01 T02450116  RH  045%=      5-min Rain = 0
KPD1 130231Z 15004KT 24/12 A2998 RMK A01 T02440117  RH  045%=      5-min Rain = 0
KPD1 130232Z 15004KT 24/12 A2998 RMK A01 T02440117  RH  045%=      5-min Rain = 0
KPD1 130233Z 14004KT 24/12 A2998 RMK A01 T02430117  RH  045%=      5-min Rain = 0
KPD1 130234Z 15005KT 24/12 A2998 RMK A01 T02430117  RH  045%=      5-min Rain = 0
KPD1 130235Z 15005KT 24/12 A2999 RMK A01 T02420117  RH  045%=      5-min Rain = 0
KPD1 130236Z 16005KT 24/12 A2999 RMK A01 T02420117  RH  046%=      5-min Rain = 0
KPD1 130237Z 15005KT 24/12 A2999 RMK A01 T02410117  RH  046%=      5-min Rain = 0
KPD1 130238Z 15005KT 24/12 A2999 RMK A01 T02410117  RH  046%=      5-min Rain = 0
KPD1 130239Z 15003KT 24/12 A2999 RMK A01 T02410116  RH  046%=      5-min Rain = 0
KPD1 130240Z 14004KT 24/12 A2999 RMK A01 T02410116  RH  046%=      5-min Rain = 0
KPD1 130241Z 14004KT 24/12 A2998 RMK A01 T02400117  RH  046%=      5-min Rain = 0
KPD1 130242Z 15003KT 24/12 A2998 RMK A01 T02400117  RH  046%=      5-min Rain = 0
KPD1 130243Z 15003KT 24/12 A2998 RMK A01 T02390117  RH  046%=      5-min Rain = 0
KPD1 130244Z 15003KT 24/12 A2998 RMK A01 T02380117  RH  047%=      5-min Rain = 0
KPD1 130245Z 15002KT 24/12 A2999 RMK A01 T02370117  RH  047%=      5-min Rain = 0
KPD1 130246Z 15003KT 24/12 A2999 RMK A01 T02370117  RH  047%=      5-min Rain = 0
KPD1 130247Z 14005KT 24/12 A2999 RMK A01 T02360117  RH  047%=      5-min Rain = 0
KPD1 130248Z 15005KT 24/12 A2999 RMK A01 T02360116  RH  047%=      5-min Rain = 0
KPD1 130249Z 15004KT 24/12 A2999 RMK A01 T02360116  RH  047%=      5-min Rain = 0
KPD1 130250Z 15004KT 24/12 A2999 RMK A01 T02370116  RH  047%=      5-min Rain = 0
KPD1 130251Z 15004KT 24/12 A2999 RMK A01 T02360116  RH  047%=      5-min Rain = 0
KPD1 130252Z 14004KT 24/12 A2999 RMK A01 T02360116  RH  047%=      5-min Rain = 0
KPD1 130253Z 14004KT 24/12 A2999 RMK A01 T02360116  RH  047%=      5-min Rain = 0
KPD1 130254Z 13003KT 24/12 A2999 RMK A01 T02350116  RH  047%=      5-min Rain = 0
KPD1 130255Z 14004KT 24/12 A2999 RMK A01 T02350117  RH  048%=      5-min Rain = 0
KPD1 130256Z 13004KT 23/12 A2999 RMK A01 T02340117  RH  048%=      5-min Rain = 0
KPD1 130257Z 14004KT 23/12 A2999 RMK A01 T02330116  RH  048%=      5-min Rain = 0
KPD1 130258Z 14003KT 23/12 A2999 RMK A01 T02330117  RH  048%=      5-min Rain = 0
KPD1 130259Z 14003KT 23/12 A2999 RMK A01 T02320116  RH  048%=      5-min Rain = 0
KPD1 130300Z 14004KT 23/12 A2999 RMK A01 T02320116  RH  048%=      5-min Rain = 0
KPD1 130301Z 14004KT 23/12 A2999 RMK A01 T02310116  RH  048%=      5-min Rain = 0
KPD1 130302Z 15003KT 23/12 A2999 RMK A01 T02310116  RH  048%=      5-min Rain = 0
KPD1 130303Z 15003KT 23/12 A2999 RMK A01 T02310116  RH  048%=      5-min Rain = 0
KPD1 130304Z 15003KT 23/12 A2999 RMK A01 T02310116  RH  048%=      5-min Rain = 0
KPD1 130305Z 15004KT 23/12 A2999 RMK A01 T02300116  RH  049%=      5-min Rain = 0
KPD1 130306Z 15004KT 23/12 A2999 RMK A01 T02300116  RH  049%=      5-min Rain = 0
KPD1 130307Z 15004KT 23/12 A2999 RMK A01 T02290116  RH  049%=      5-min Rain = 0
KPD1 130308Z 15003KT 23/12 A2999 RMK A01 T02290116  RH  049%=      5-min Rain = 0
KPD1 130309Z 15004KT 23/12 A2999 RMK A01 T02280116  RH  049%=      5-min Rain = 0
KPD1 130310Z 15004KT 23/12 A2999 RMK A01 T02280116  RH  049%=      5-min Rain = 0
KPD1 130311Z 14003KT 23/12 A2999 RMK A01 T02270116  RH  049%=      5-min Rain = 0
KPD1 130312Z 15003KT 23/12 A2999 RMK A01 T02270116  RH  049%=      5-min Rain = 0
KPD1 130313Z 15002KT 23/12 A2999 RMK A01 T02270116  RH  050%=      5-min Rain = 0
KPD1 130314Z 14003KT 23/12 A2999 RMK A01 T02260116  RH  050%=      5-min Rain = 0
KPD1 130315Z 14003KT 23/12 A2999 RMK A01 T02250116  RH  050%=      5-min Rain = 0
KPD1 130316Z 15003KT 23/12 A2999 RMK A01 T02250116  RH  050%=      5-min Rain = 0
KPD1 130317Z 15003KT 23/12 A2999 RMK A01 T02250116  RH  050%=      5-min Rain = 0
KPD1 130318Z 15003KT 22/12 A2999 RMK A01 T02240116  RH  050%=      5-min Rain = 0
KPD1 130319Z 15002KT 22/12 A2999 RMK A01 T02240116  RH  050%=      5-min Rain = 0
KPD1 130320Z 15002KT 22/12 A2999 RMK A01 T02230116  RH  051%=      5-min Rain = 0
KPD1 130321Z 16003KT 22/12 A2999 RMK A01 T02230116  RH  051%=      5-min Rain = 0
KPD1 130322Z 16003KT 22/12 A2999 RMK A01 T02220116  RH  051%=      5-min Rain = 0
KPD1 130323Z 16003KT 22/12 A2999 RMK A01 T02210116  RH  051%=      5-min Rain = 0
KPD1 130324Z 16004KT 22/12 A2999 RMK A01 T02210116  RH  051%=      5-min Rain = 0
KPD1 130325Z 16003KT 22/12 A2999 RMK A01 T02200116  RH  052%=      5-min Rain = 0
KPD1 130326Z 16004KT 22/12 A2999 RMK A01 T02190116  RH  052%=      5-min Rain = 0
KPD1 130327Z 16004KT 22/12 A2999 RMK A01 T02190116  RH  052%=      5-min Rain = 0
KPD1 130328Z 15004KT 22/12 A2999 RMK A01 T02190116  RH  052%=      5-min Rain = 0
KPD1 130329Z 15004KT 22/12 A2999 RMK A01 T02190116  RH  052%=      5-min Rain = 0
KPD1 130330Z 14004KT 22/12 A2999 RMK A01 T02190116  RH  052%=      5-min Rain = 0
KPD1 130331Z 15003KT 22/12 A2999 RMK A01 T02190115  RH  052%=      5-min Rain = 0
KPD1 130332Z 15003KT 22/12 A2999 RMK A01 T02190116  RH  052%=      5-min Rain = 0
KPD1 130333Z 16004KT 22/12 A2999 RMK A01 T02190115  RH  052%=      5-min Rain = 0
KPD1 130334Z 16004KT 22/12 A2999 RMK A01 T02190115  RH  052%=      5-min Rain = 0
KPD1 130335Z 16004KT 22/12 A2999 RMK A01 T02190116  RH  052%=      5-min Rain = 0
KPD1 130336Z 15004KT 22/12 A2999 RMK A01 T02190116  RH  052%=      5-min Rain = 0
KPD1 130337Z 15004KT 22/12 A2999 RMK A01 T02180116  RH  052%=      5-min Rain = 0
KPD1 130338Z 14003KT 22/12 A2999 RMK A01 T02180116  RH  052%=      5-min Rain = 0
KPD1 130339Z 14003KT 22/12 A2999 RMK A01 T02180115  RH  052%=      5-min Rain = 0
KPD1 130340Z 14003KT 22/12 A2999 RMK A01 T02180115  RH  052%=      5-min Rain = 0
KPD1 130341Z 14004KT 22/12 A2999 RMK A01 T02180116  RH  052%=      5-min Rain = 0
KPD1 130342Z 14005KT 22/12 A2999 RMK A01 T02190115  RH  052%=      5-min Rain = 0
KPD1 130343Z 15004KT 22/12 A2999 RMK A01 T02190115  RH  052%=      5-min Rain = 0
KPD1 130344Z 16003KT 22/12 A2999 RMK A01 T02180115  RH  052%=      5-min Rain = 0
KPD1 130345Z 15003KT 22/12 A2999 RMK A01 T02180116  RH  052%=      5-min Rain = 0
KPD1 130346Z 15004KT 22/12 A2999 RMK A01 T02170115  RH  052%=      5-min Rain = 0
KPD1 130347Z 15004KT 22/12 A2999 RMK A01 T02170115  RH  052%=      5-min Rain = 0
KPD1 130348Z 15004KT 22/12 A2999 RMK A01 T02170115  RH  052%=      5-min Rain = 0
KPD1 130349Z 16004KT 22/12 A2999 RMK A01 T02160115  RH  052%=      5-min Rain = 0
KPD1 130350Z 16004KT 22/12 A2999 RMK A01 T02160115  RH  052%=      5-min Rain = 0
KPD1 130351Z 16004KT 22/12 A2999 RMK A01 T02160115  RH  052%=      5-min Rain = 0
KPD1 130352Z 16004KT 22/12 A2999 RMK A01 T02160115  RH  052%=      5-min Rain = 0
KPD1 130353Z 15004KT 22/12 A2999 RMK A01 T02170115  RH  052%=      5-min Rain = 0
KPD1 130354Z 15003KT 22/11 A2999 RMK A01 T02160114  RH  052%=      5-min Rain = 0
KPD1 130355Z 15004KT 22/11 A2999 RMK A01 T02160114  RH  052%=      5-min Rain = 0
KPD1 130356Z 16004KT 22/11 A2999 RMK A01 T02170114  RH  052%=      5-min Rain = 0
KPD1 130357Z 16004KT 22/12 A2999 RMK A01 T02170115  RH  052%=      5-min Rain = 0
KPD1 130358Z 16004KT 22/11 A2999 RMK A01 T02170114  RH  052%=      5-min Rain = 0
KPD1 130359Z 17004KT 22/11 A2999 RMK A01 T02160114  RH  052%=      5-min Rain = 0
KPD1 130400Z 17004KT 22/11 A2999 RMK A01 T02160114  RH  052%=      5-min Rain = 0
KPD1 130401Z 17004KT 22/12 A2999 RMK A01 T02170115  RH  052%=      5-min Rain = 0
KPD1 130402Z 17004KT 22/11 A2999 RMK A01 T02160114  RH  052%=      5-min Rain = 0
KPD1 130403Z 17004KT 22/11 A2999 RMK A01 T02160114  RH  052%=      5-min Rain = 0
KPD1 130404Z 17005KT 22/11 A2999 RMK A01 T02160114  RH  052%=      5-min Rain = 0
KPD1 130405Z 17005KT 22/11 A2999 RMK A01 T02160114  RH  052%=      5-min Rain = 0
KPD1 130406Z 17005KT 22/11 A2999 RMK A01 T02160114  RH  052%=      5-min Rain = 0
KPD1 130407Z 17005KT 22/11 A2999 RMK A01 T02160114  RH  052%=      5-min Rain = 0
KPD1 130408Z 17005KT 22/11 A2999 RMK A01 T02160114  RH  052%=      5-min Rain = 0
KPD1 130409Z 17005KT 22/11 A2999 RMK A01 T02160114  RH  052%=      5-min Rain = 0
KPD1 130410Z 17006KT 22/11 A2999 RMK A01 T02160114  RH  052%=      5-min Rain = 0
KPD1 130411Z 18005KT 22/11 A30 RMK A01 T02160114  RH  052%=      5-min Rain = 0
KPD1 130412Z 18005KT 22/11 A30 RMK A01 T02160114  RH  052%=      5-min Rain = 0
KPD1 130413Z 17005KT 22/11 A30 RMK A01 T02150114  RH  052%=      5-min Rain = 0
KPD1 130414Z 17005KT 22/11 A30 RMK A01 T02150113  RH  052%=      5-min Rain = 0
KPD1 130415Z 17005KT 22/11 A30 RMK A01 T02150113  RH  052%=      5-min Rain = 0
KPD1 130416Z 17004KT 22/11 A30 RMK A01 T02150113  RH  052%=      5-min Rain = 0
KPD1 130417Z 16004KT 22/11 A30 RMK A01 T02150113  RH  052%=      5-min Rain = 0
KPD1 130418Z 17004KT 22/11 A30 RMK A01 T02160114  RH  052%=      5-min Rain = 0
KPD1 130419Z 17005KT 22/11 A30 RMK A01 T02150113  RH  052%=      5-min Rain = 0
KPD1 130420Z 17004KT 22/11 A30 RMK A01 T02150113  RH  052%=      5-min Rain = 0
KPD1 130421Z 17004KT 22/11 A30 RMK A01 T02150113  RH  052%=      5-min Rain = 0
KPD1 130422Z 17004KT 22/11 A30 RMK A01 T02150113  RH  052%=      5-min Rain = 0
KPD1 130423Z 16004KT 22/11 A30 RMK A01 T02150113  RH  052%=      5-min Rain = 0
KPD1 130424Z 17004KT 22/11 A30 RMK A01 T02150113  RH  052%=      5-min Rain = 0
KPD1 130425Z 16004KT 22/11 A30 RMK A01 T02150113  RH  052%=      5-min Rain = 0
KPD1 130426Z 17004KT 21/11 A30 RMK A01 T02140113  RH  052%=      5-min Rain = 0
KPD1 130427Z 17004KT 21/11 A30 RMK A01 T02140113  RH  052%=      5-min Rain = 0
KPD1 130428Z 18004KT 21/11 A30 RMK A01 T02140112  RH  052%=      5-min Rain = 0
KPD1 130429Z 17004KT 21/11 A30 RMK A01 T02140112  RH  052%=      5-min Rain = 0
KPD1 130430Z 17004KT 21/11 A30 RMK A01 T02130112  RH  052%=      5-min Rain = 0
KPD1 130431Z 17004KT 21/11 A30 RMK A01 T02130112  RH  053%=      5-min Rain = 0
KPD1 130432Z 18004KT 21/11 A30 RMK A01 T02120112  RH  053%=      5-min Rain = 0
KPD1 130433Z 17004KT 21/11 A30 RMK A01 T02120112  RH  053%=      5-min Rain = 0
KPD1 130434Z 17004KT 21/11 A30 RMK A01 T02120111  RH  053%=      5-min Rain = 0
KPD1 130435Z 17005KT 21/11 A30 RMK A01 T02120112  RH  053%=      5-min Rain = 0
KPD1 130436Z 16004KT 21/11 A30 RMK A01 T02120111  RH  052%=      5-min Rain = 0
KPD1 130437Z 16005KT 21/11 A30 RMK A01 T02120111  RH  052%=      5-min Rain = 0
KPD1 130438Z 16004KT 21/11 A30 RMK A01 T02120110  RH  052%=      5-min Rain = 0
KPD1 130439Z 16004KT 21/11 A30 RMK A01 T02130111  RH  052%=      5-min Rain = 0
KPD1 130440Z 16004KT 21/11 A30 RMK A01 T02130111  RH  052%=      5-min Rain = 0
KPD1 130441Z 17004KT 21/11 A30 RMK A01 T02130111  RH  052%=      5-min Rain = 0
KPD1 130442Z 16004KT 21/11 A30 RMK A01 T02130111  RH  052%=      5-min Rain = 0
KPD1 130443Z 16003KT 21/11 A30 RMK A01 T02120112  RH  053%=      5-min Rain = 0
KPD1 130444Z 16003KT 21/11 A30 RMK A01 T02110112  RH  053%=      5-min Rain = 0
KPD1 130445Z 16003KT 21/11 A30 RMK A01 T02110112  RH  053%=      5-min Rain = 0
KPD1 130446Z 17004KT 21/11 A30 RMK A01 T02100111  RH  053%=      5-min Rain = 0
KPD1 130447Z 17003KT 21/11 A30 RMK A01 T02090111  RH  053%=      5-min Rain = 0
KPD1 130448Z 17004KT 21/11 A30 RMK A01 T02090111  RH  054%=      5-min Rain = 0
KPD1 130449Z 18004KT 21/11 A30 RMK A01 T02080111  RH  054%=      5-min Rain = 0
KPD1 130450Z 18005KT 21/11 A30 RMK A01 T02080111  RH  054%=      5-min Rain = 0
KPD1 130451Z 18004KT 21/11 A30 RMK A01 T02070110  RH  054%=      5-min Rain = 0
KPD1 130452Z 19004KT 21/11 A30 RMK A01 T02070110  RH  054%=      5-min Rain = 0
KPD1 130453Z 19003KT 21/11 A30 RMK A01 T02070110  RH  054%=      5-min Rain = 0
KPD1 130454Z 19003KT 21/11 A30 RMK A01 T02070110  RH  054%=      5-min Rain = 0
KPD1 130455Z 19004KT 21/11 A30 RMK A01 T02060111  RH  054%=      5-min Rain = 0
KPD1 130456Z 19004KT 21/11 A30 RMK A01 T02060111  RH  054%=      5-min Rain = 0
KPD1 130457Z 19004KT 21/11 A30 RMK A01 T02060110  RH  054%=      5-min Rain = 0
KPD1 130458Z 19004KT 21/11 A30 RMK A01 T02060110  RH  054%=      5-min Rain = 0
KPD1 130459Z 19005KT 21/11 A30 RMK A01 T02070111  RH  054%=      5-min Rain = 0

Page generated in 0.0651 seconds.